<?xml version="1.0" encoding="UTF-8" standalone="no" ?>
<gpx xmlns="http://www.topografix.com/GPX/1/1" xmlns:xsi="http://www.w3.org/2001/XMLSchema-instance" xsi:schemaLocation="http://www.topografix.com/GPX/1/1 http://www.topografix.com/GPX/1/1/gpx.xsd" version="1.1" creator="VisuGPX - https://www.visugpx.com">
  <metadata>
    <name>Briord-Lhuis-Briord</name>
    <desc><![CDATA[circuit au départ du Bayard, trés agréable en sous-bois]]></desc>
  </metadata>
  <trk>
    <name><![CDATA[Briord-Lhuis-Briord]]></name>
    <trkseg>
      <trkpt lat="45.78728" lon="5.44356">
        <ele>147.906</ele>
        <time>2017-07-17T06:58:56Z</time>
      </trkpt>
      <trkpt lat="45.78723" lon="5.44357">
        <ele>208.272</ele>
        <time>2017-07-17T07:06:41Z</time>
      </trkpt>
      <trkpt lat="45.78703" lon="5.44367">
        <ele>208.009</ele>
        <time>2017-07-17T07:07:44Z</time>
      </trkpt>
      <trkpt lat="45.78692" lon="5.44374">
        <ele>207.684</ele>
        <time>2017-07-17T07:07:48Z</time>
      </trkpt>
      <trkpt lat="45.7869" lon="5.44387">
        <ele>206.307</ele>
        <time>2017-07-17T07:07:51Z</time>
      </trkpt>
      <trkpt lat="45.7869" lon="5.44418">
        <ele>203.054</ele>
        <time>2017-07-17T07:07:57Z</time>
      </trkpt>
      <trkpt lat="45.78692" lon="5.44434">
        <ele>202.176</ele>
        <time>2017-07-17T07:07:59Z</time>
      </trkpt>
      <trkpt lat="45.78686" lon="5.44461">
        <ele>200.388</ele>
        <time>2017-07-17T07:08:02Z</time>
      </trkpt>
      <trkpt lat="45.78682" lon="5.44471">
        <ele>198.069</ele>
        <time>2017-07-17T07:08:03Z</time>
      </trkpt>
      <trkpt lat="45.78673" lon="5.44489">
        <ele>196.422</ele>
        <time>2017-07-17T07:08:05Z</time>
      </trkpt>
      <trkpt lat="45.7866" lon="5.44508">
        <ele>194.818</ele>
        <time>2017-07-17T07:08:07Z</time>
      </trkpt>
      <trkpt lat="45.78643" lon="5.44539">
        <ele>192.667</ele>
        <time>2017-07-17T07:08:10Z</time>
      </trkpt>
      <trkpt lat="45.78617" lon="5.44569">
        <ele>193.027</ele>
        <time>2017-07-17T07:08:14Z</time>
      </trkpt>
      <trkpt lat="45.78597" lon="5.44574">
        <ele>194.576</ele>
        <time>2017-07-17T07:08:17Z</time>
      </trkpt>
      <trkpt lat="45.7859" lon="5.44582">
        <ele>196.688</ele>
        <time>2017-07-17T07:08:19Z</time>
      </trkpt>
      <trkpt lat="45.78582" lon="5.4459">
        <ele>198.212</ele>
        <time>2017-07-17T07:08:23Z</time>
      </trkpt>
      <trkpt lat="45.78569" lon="5.44609">
        <ele>199.879</ele>
        <time>2017-07-17T07:08:33Z</time>
      </trkpt>
      <trkpt lat="45.78552" lon="5.44635">
        <ele>202.036</ele>
        <time>2017-07-17T07:08:46Z</time>
      </trkpt>
      <trkpt lat="45.7854" lon="5.44651">
        <ele>203.382</ele>
        <time>2017-07-17T07:08:54Z</time>
      </trkpt>
      <trkpt lat="45.78525" lon="5.44674">
        <ele>204.982</ele>
        <time>2017-07-17T07:09:06Z</time>
      </trkpt>
      <trkpt lat="45.78512" lon="5.44694">
        <ele>207.533</ele>
        <time>2017-07-17T07:09:17Z</time>
      </trkpt>
      <trkpt lat="45.78497" lon="5.4471">
        <ele>208.582</ele>
        <time>2017-07-17T07:09:27Z</time>
      </trkpt>
      <trkpt lat="45.78477" lon="5.44724">
        <ele>209.611</ele>
        <time>2017-07-17T07:09:39Z</time>
      </trkpt>
      <trkpt lat="45.78452" lon="5.44739">
        <ele>210.05</ele>
        <time>2017-07-17T07:09:51Z</time>
      </trkpt>
      <trkpt lat="45.78429" lon="5.44756">
        <ele>210.4</ele>
        <time>2017-07-17T07:10:01Z</time>
      </trkpt>
      <trkpt lat="45.78412" lon="5.44767">
        <ele>210.42</ele>
        <time>2017-07-17T07:10:10Z</time>
      </trkpt>
      <trkpt lat="45.78411" lon="5.44774">
        <ele>210.102</ele>
        <time>2017-07-17T07:10:14Z</time>
      </trkpt>
      <trkpt lat="45.78411" lon="5.44785">
        <ele>208.836</ele>
        <time>2017-07-17T07:10:17Z</time>
      </trkpt>
      <trkpt lat="45.78412" lon="5.44794">
        <ele>207.382</ele>
        <time>2017-07-17T07:10:19Z</time>
      </trkpt>
      <trkpt lat="45.78391" lon="5.44778">
        <ele>204.836</ele>
        <time>2017-07-17T07:10:23Z</time>
      </trkpt>
      <trkpt lat="45.78368" lon="5.44787">
        <ele>201.616</ele>
        <time>2017-07-17T07:10:30Z</time>
      </trkpt>
      <trkpt lat="45.78359" lon="5.44889">
        <ele>200.747</ele>
        <time>2017-07-17T07:10:34Z</time>
      </trkpt>
      <trkpt lat="45.78326" lon="5.44968">
        <ele>199.508</ele>
        <time>2017-07-17T07:10:45Z</time>
      </trkpt>
      <trkpt lat="45.78309" lon="5.45007">
        <ele>200.544</ele>
        <time>2017-07-17T07:10:52Z</time>
      </trkpt>
      <trkpt lat="45.78309" lon="5.45025">
        <ele>200.706</ele>
        <time>2017-07-17T07:10:57Z</time>
      </trkpt>
      <trkpt lat="45.78311" lon="5.45029">
        <ele>200.781</ele>
        <time>2017-07-17T07:10:59Z</time>
      </trkpt>
      <trkpt lat="45.7831" lon="5.45041">
        <ele>200.692</ele>
        <time>2017-07-17T07:11:03Z</time>
      </trkpt>
      <trkpt lat="45.78294" lon="5.45063">
        <ele>200.504</ele>
        <time>2017-07-17T07:11:11Z</time>
      </trkpt>
      <trkpt lat="45.78292" lon="5.45064">
        <ele>200.506</ele>
        <time>2017-07-17T07:11:12Z</time>
      </trkpt>
      <trkpt lat="45.78282" lon="5.45067">
        <ele>202.787</ele>
        <time>2017-07-17T07:11:19Z</time>
      </trkpt>
      <trkpt lat="45.78282" lon="5.45069">
        <ele>202.527</ele>
        <time>2017-07-17T07:11:30Z</time>
      </trkpt>
      <trkpt lat="45.7828" lon="5.45081">
        <ele>202.058</ele>
        <time>2017-07-17T07:11:35Z</time>
      </trkpt>
      <trkpt lat="45.78276" lon="5.45085">
        <ele>204.369</ele>
        <time>2017-07-17T07:11:38Z</time>
      </trkpt>
      <trkpt lat="45.78271" lon="5.45098">
        <ele>204.243</ele>
        <time>2017-07-17T07:11:44Z</time>
      </trkpt>
      <trkpt lat="45.78272" lon="5.45102">
        <ele>204.665</ele>
        <time>2017-07-17T07:11:52Z</time>
      </trkpt>
      <trkpt lat="45.78283" lon="5.45108">
        <ele>205.133</ele>
        <time>2017-07-17T07:13:24Z</time>
      </trkpt>
      <trkpt lat="45.78318" lon="5.45131">
        <ele>206.651</ele>
        <time>2017-07-17T07:13:37Z</time>
      </trkpt>
      <trkpt lat="45.78354" lon="5.45157">
        <ele>207.806</ele>
        <time>2017-07-17T07:13:50Z</time>
      </trkpt>
      <trkpt lat="45.78395" lon="5.4518">
        <ele>207.15</ele>
        <time>2017-07-17T07:14:01Z</time>
      </trkpt>
      <trkpt lat="45.78439" lon="5.45209">
        <ele>205.9</ele>
        <time>2017-07-17T07:14:11Z</time>
      </trkpt>
      <trkpt lat="45.78479" lon="5.45237">
        <ele>203.662</ele>
        <time>2017-07-17T07:14:19Z</time>
      </trkpt>
      <trkpt lat="45.78498" lon="5.4525">
        <ele>202.528</ele>
        <time>2017-07-17T07:14:23Z</time>
      </trkpt>
      <trkpt lat="45.78464" lon="5.45227">
        <ele>199.866</ele>
        <time>2017-07-17T07:14:46Z</time>
      </trkpt>
      <trkpt lat="45.7843" lon="5.45203">
        <ele>199.596</ele>
        <time>2017-07-17T07:14:57Z</time>
      </trkpt>
      <trkpt lat="45.78426" lon="5.452">
        <ele>199.196</ele>
        <time>2017-07-17T07:14:58Z</time>
      </trkpt>
      <trkpt lat="45.78403" lon="5.45216">
        <ele>199.024</ele>
        <time>2017-07-17T07:15:03Z</time>
      </trkpt>
      <trkpt lat="45.78398" lon="5.45228">
        <ele>199.313</ele>
        <time>2017-07-17T07:15:06Z</time>
      </trkpt>
      <trkpt lat="45.78381" lon="5.45272">
        <ele>199.098</ele>
        <time>2017-07-17T07:15:16Z</time>
      </trkpt>
      <trkpt lat="45.78363" lon="5.45314">
        <ele>198.991</ele>
        <time>2017-07-17T07:15:25Z</time>
      </trkpt>
      <trkpt lat="45.78342" lon="5.45368">
        <ele>199.426</ele>
        <time>2017-07-17T07:15:36Z</time>
      </trkpt>
      <trkpt lat="45.78322" lon="5.4543">
        <ele>199.976</ele>
        <time>2017-07-17T07:15:49Z</time>
      </trkpt>
      <trkpt lat="45.7831" lon="5.45478">
        <ele>199.805</ele>
        <time>2017-07-17T07:15:58Z</time>
      </trkpt>
      <trkpt lat="45.78297" lon="5.45541">
        <ele>198.98</ele>
        <time>2017-07-17T07:16:10Z</time>
      </trkpt>
      <trkpt lat="45.78284" lon="5.45588">
        <ele>199.459</ele>
        <time>2017-07-17T07:16:20Z</time>
      </trkpt>
      <trkpt lat="45.78264" lon="5.45646">
        <ele>199.826</ele>
        <time>2017-07-17T07:16:34Z</time>
      </trkpt>
      <trkpt lat="45.78245" lon="5.45693">
        <ele>200.136</ele>
        <time>2017-07-17T07:16:46Z</time>
      </trkpt>
      <trkpt lat="45.78243" lon="5.457">
        <ele>200.53</ele>
        <time>2017-07-17T07:16:49Z</time>
      </trkpt>
      <trkpt lat="45.78236" lon="5.45727">
        <ele>199.912</ele>
        <time>2017-07-17T07:16:57Z</time>
      </trkpt>
      <trkpt lat="45.78227" lon="5.4576">
        <ele>199.816</ele>
        <time>2017-07-17T07:17:05Z</time>
      </trkpt>
      <trkpt lat="45.78202" lon="5.45805">
        <ele>199.701</ele>
        <time>2017-07-17T07:17:16Z</time>
      </trkpt>
      <trkpt lat="45.78172" lon="5.45854">
        <ele>199.36</ele>
        <time>2017-07-17T07:17:29Z</time>
      </trkpt>
      <trkpt lat="45.78142" lon="5.45907">
        <ele>199.117</ele>
        <time>2017-07-17T07:17:42Z</time>
      </trkpt>
      <trkpt lat="45.78118" lon="5.45948">
        <ele>199.533</ele>
        <time>2017-07-17T07:17:52Z</time>
      </trkpt>
      <trkpt lat="45.78098" lon="5.45981">
        <ele>199.379</ele>
        <time>2017-07-17T07:18:00Z</time>
      </trkpt>
      <trkpt lat="45.78088" lon="5.46">
        <ele>200.069</ele>
        <time>2017-07-17T07:18:05Z</time>
      </trkpt>
      <trkpt lat="45.78085" lon="5.46006">
        <ele>198.98</ele>
        <time>2017-07-17T07:18:10Z</time>
      </trkpt>
      <trkpt lat="45.78138" lon="5.46045">
        <ele>199.853</ele>
        <time>2017-07-17T07:18:22Z</time>
      </trkpt>
      <trkpt lat="45.78165" lon="5.46068">
        <ele>199.704</ele>
        <time>2017-07-17T07:18:31Z</time>
      </trkpt>
      <trkpt lat="45.78176" lon="5.46073">
        <ele>200.456</ele>
        <time>2017-07-17T07:18:37Z</time>
      </trkpt>
      <trkpt lat="45.78183" lon="5.46075">
        <ele>200.047</ele>
        <time>2017-07-17T07:18:47Z</time>
      </trkpt>
      <trkpt lat="45.78191" lon="5.46079">
        <ele>199.594</ele>
        <time>2017-07-17T07:18:50Z</time>
      </trkpt>
      <trkpt lat="45.7823" lon="5.46092">
        <ele>199.772</ele>
        <time>2017-07-17T07:19:01Z</time>
      </trkpt>
      <trkpt lat="45.78249" lon="5.46086">
        <ele>199.972</ele>
        <time>2017-07-17T07:19:07Z</time>
      </trkpt>
      <trkpt lat="45.78273" lon="5.46063">
        <ele>200.553</ele>
        <time>2017-07-17T07:19:15Z</time>
      </trkpt>
      <trkpt lat="45.78294" lon="5.4603">
        <ele>200.736</ele>
        <time>2017-07-17T07:19:24Z</time>
      </trkpt>
      <trkpt lat="45.78316" lon="5.45991">
        <ele>201.468</ele>
        <time>2017-07-17T07:19:34Z</time>
      </trkpt>
      <trkpt lat="45.78348" lon="5.4595">
        <ele>201.632</ele>
        <time>2017-07-17T07:19:46Z</time>
      </trkpt>
      <trkpt lat="45.78355" lon="5.45945">
        <ele>201.639</ele>
        <time>2017-07-17T07:19:48Z</time>
      </trkpt>
      <trkpt lat="45.78385" lon="5.4596">
        <ele>201.648</ele>
        <time>2017-07-17T07:19:55Z</time>
      </trkpt>
      <trkpt lat="45.78409" lon="5.4597">
        <ele>201.556</ele>
        <time>2017-07-17T07:20:01Z</time>
      </trkpt>
      <trkpt lat="45.78445" lon="5.46005">
        <ele>201.961</ele>
        <time>2017-07-17T07:20:12Z</time>
      </trkpt>
      <trkpt lat="45.78481" lon="5.46032">
        <ele>201.803</ele>
        <time>2017-07-17T07:20:23Z</time>
      </trkpt>
      <trkpt lat="45.7852" lon="5.46036">
        <ele>203.319</ele>
        <time>2017-07-17T07:20:34Z</time>
      </trkpt>
      <trkpt lat="45.78553" lon="5.46042">
        <ele>203.668</ele>
        <time>2017-07-17T07:20:43Z</time>
      </trkpt>
      <trkpt lat="45.78591" lon="5.46051">
        <ele>203.958</ele>
        <time>2017-07-17T07:20:53Z</time>
      </trkpt>
      <trkpt lat="45.78601" lon="5.46052">
        <ele>204.399</ele>
        <time>2017-07-17T07:20:56Z</time>
      </trkpt>
      <trkpt lat="45.78602" lon="5.46072">
        <ele>204.082</ele>
        <time>2017-07-17T07:21:01Z</time>
      </trkpt>
      <trkpt lat="45.78601" lon="5.4611">
        <ele>203.598</ele>
        <time>2017-07-17T07:21:08Z</time>
      </trkpt>
      <trkpt lat="45.78593" lon="5.46167">
        <ele>203.686</ele>
        <time>2017-07-17T07:21:19Z</time>
      </trkpt>
      <trkpt lat="45.78594" lon="5.46209">
        <ele>203.458</ele>
        <time>2017-07-17T07:21:27Z</time>
      </trkpt>
      <trkpt lat="45.78599" lon="5.46257">
        <ele>203.342</ele>
        <time>2017-07-17T07:21:37Z</time>
      </trkpt>
      <trkpt lat="45.78606" lon="5.46316">
        <ele>204.066</ele>
        <time>2017-07-17T07:21:49Z</time>
      </trkpt>
      <trkpt lat="45.7861" lon="5.46365">
        <ele>203.854</ele>
        <time>2017-07-17T07:21:59Z</time>
      </trkpt>
      <trkpt lat="45.78608" lon="5.46406">
        <ele>205.115</ele>
        <time>2017-07-17T07:22:09Z</time>
      </trkpt>
      <trkpt lat="45.78606" lon="5.46439">
        <ele>205.808</ele>
        <time>2017-07-17T07:22:18Z</time>
      </trkpt>
      <trkpt lat="45.78603" lon="5.46456">
        <ele>206.34</ele>
        <time>2017-07-17T07:22:23Z</time>
      </trkpt>
      <trkpt lat="45.78591" lon="5.46487">
        <ele>207.294</ele>
        <time>2017-07-17T07:22:32Z</time>
      </trkpt>
      <trkpt lat="45.78578" lon="5.4651">
        <ele>209.218</ele>
        <time>2017-07-17T07:22:40Z</time>
      </trkpt>
      <trkpt lat="45.78564" lon="5.46535">
        <ele>209.929</ele>
        <time>2017-07-17T07:22:49Z</time>
      </trkpt>
      <trkpt lat="45.7855" lon="5.46558">
        <ele>212.61</ele>
        <time>2017-07-17T07:22:58Z</time>
      </trkpt>
      <trkpt lat="45.78533" lon="5.46587">
        <ele>214.994</ele>
        <time>2017-07-17T07:23:09Z</time>
      </trkpt>
      <trkpt lat="45.78531" lon="5.4661">
        <ele>216.432</ele>
        <time>2017-07-17T07:23:19Z</time>
      </trkpt>
      <trkpt lat="45.78531" lon="5.46614">
        <ele>216.683</ele>
        <time>2017-07-17T07:23:29Z</time>
      </trkpt>
      <trkpt lat="45.78536" lon="5.46611">
        <ele>217.051</ele>
        <time>2017-07-17T07:23:35Z</time>
      </trkpt>
      <trkpt lat="45.78551" lon="5.46599">
        <ele>216.97</ele>
        <time>2017-07-17T07:23:47Z</time>
      </trkpt>
      <trkpt lat="45.78569" lon="5.46585">
        <ele>216.654</ele>
        <time>2017-07-17T07:23:56Z</time>
      </trkpt>
      <trkpt lat="45.78597" lon="5.46562">
        <ele>216.088</ele>
        <time>2017-07-17T07:24:07Z</time>
      </trkpt>
      <trkpt lat="45.78636" lon="5.46525">
        <ele>216.309</ele>
        <time>2017-07-17T07:24:20Z</time>
      </trkpt>
      <trkpt lat="45.78674" lon="5.46491">
        <ele>216.578</ele>
        <time>2017-07-17T07:24:32Z</time>
      </trkpt>
      <trkpt lat="45.78711" lon="5.46457">
        <ele>217.438</ele>
        <time>2017-07-17T07:24:45Z</time>
      </trkpt>
      <trkpt lat="45.78732" lon="5.4646">
        <ele>218.822</ele>
        <time>2017-07-17T07:24:51Z</time>
      </trkpt>
      <trkpt lat="45.78732" lon="5.4647">
        <ele>220.11</ele>
        <time>2017-07-17T07:24:57Z</time>
      </trkpt>
      <trkpt lat="45.78728" lon="5.46473">
        <ele>220.284</ele>
        <time>2017-07-17T07:24:59Z</time>
      </trkpt>
      <trkpt lat="45.78723" lon="5.46477">
        <ele>221.081</ele>
        <time>2017-07-17T07:25:03Z</time>
      </trkpt>
      <trkpt lat="45.78709" lon="5.46499">
        <ele>222.07</ele>
        <time>2017-07-17T07:25:15Z</time>
      </trkpt>
      <trkpt lat="45.78696" lon="5.46515">
        <ele>222.139</ele>
        <time>2017-07-17T07:25:24Z</time>
      </trkpt>
      <trkpt lat="45.78686" lon="5.46526">
        <ele>222.959</ele>
        <time>2017-07-17T07:25:30Z</time>
      </trkpt>
      <trkpt lat="45.78674" lon="5.46546">
        <ele>223.223</ele>
        <time>2017-07-17T07:25:39Z</time>
      </trkpt>
      <trkpt lat="45.78659" lon="5.46559">
        <ele>223.821</ele>
        <time>2017-07-17T07:25:48Z</time>
      </trkpt>
      <trkpt lat="45.78642" lon="5.46578">
        <ele>225.55</ele>
        <time>2017-07-17T07:25:59Z</time>
      </trkpt>
      <trkpt lat="45.78641" lon="5.4658">
        <ele>225.863</ele>
        <time>2017-07-17T07:26:07Z</time>
      </trkpt>
      <trkpt lat="45.78637" lon="5.46584">
        <ele>226.028</ele>
        <time>2017-07-17T07:27:36Z</time>
      </trkpt>
      <trkpt lat="45.78625" lon="5.46599">
        <ele>226.864</ele>
        <time>2017-07-17T07:27:44Z</time>
      </trkpt>
      <trkpt lat="45.78612" lon="5.46616">
        <ele>227.952</ele>
        <time>2017-07-17T07:27:54Z</time>
      </trkpt>
      <trkpt lat="45.78594" lon="5.46638">
        <ele>229.189</ele>
        <time>2017-07-17T07:28:06Z</time>
      </trkpt>
      <trkpt lat="45.7858" lon="5.46657">
        <ele>230.698</ele>
        <time>2017-07-17T07:28:16Z</time>
      </trkpt>
      <trkpt lat="45.78561" lon="5.46684">
        <ele>232.84</ele>
        <time>2017-07-17T07:28:29Z</time>
      </trkpt>
      <trkpt lat="45.78549" lon="5.46704">
        <ele>234.045</ele>
        <time>2017-07-17T07:28:38Z</time>
      </trkpt>
      <trkpt lat="45.78536" lon="5.46725">
        <ele>235.634</ele>
        <time>2017-07-17T07:28:49Z</time>
      </trkpt>
      <trkpt lat="45.78525" lon="5.46741">
        <ele>236.636</ele>
        <time>2017-07-17T07:28:58Z</time>
      </trkpt>
      <trkpt lat="45.78511" lon="5.46768">
        <ele>237.754</ele>
        <time>2017-07-17T07:29:09Z</time>
      </trkpt>
      <trkpt lat="45.78497" lon="5.4679">
        <ele>238.441</ele>
        <time>2017-07-17T07:29:20Z</time>
      </trkpt>
      <trkpt lat="45.78482" lon="5.46811">
        <ele>240.628</ele>
        <time>2017-07-17T07:29:32Z</time>
      </trkpt>
      <trkpt lat="45.78469" lon="5.46832">
        <ele>242.351</ele>
        <time>2017-07-17T07:29:42Z</time>
      </trkpt>
      <trkpt lat="45.78456" lon="5.46857">
        <ele>243.71</ele>
        <time>2017-07-17T07:29:54Z</time>
      </trkpt>
      <trkpt lat="45.78448" lon="5.46879">
        <ele>244.89</ele>
        <time>2017-07-17T07:30:03Z</time>
      </trkpt>
      <trkpt lat="45.78435" lon="5.46905">
        <ele>247.193</ele>
        <time>2017-07-17T07:30:15Z</time>
      </trkpt>
      <trkpt lat="45.78432" lon="5.46914">
        <ele>247.819</ele>
        <time>2017-07-17T07:30:19Z</time>
      </trkpt>
      <trkpt lat="45.78422" lon="5.46939">
        <ele>249.848</ele>
        <time>2017-07-17T07:30:31Z</time>
      </trkpt>
      <trkpt lat="45.78414" lon="5.46967">
        <ele>251.885</ele>
        <time>2017-07-17T07:30:42Z</time>
      </trkpt>
      <trkpt lat="45.78405" lon="5.46991">
        <ele>253.547</ele>
        <time>2017-07-17T07:30:52Z</time>
      </trkpt>
      <trkpt lat="45.78396" lon="5.47019">
        <ele>256.171</ele>
        <time>2017-07-17T07:31:04Z</time>
      </trkpt>
      <trkpt lat="45.78391" lon="5.47045">
        <ele>257.186</ele>
        <time>2017-07-17T07:31:15Z</time>
      </trkpt>
      <trkpt lat="45.78387" lon="5.47052">
        <ele>258.143</ele>
        <time>2017-07-17T07:31:19Z</time>
      </trkpt>
      <trkpt lat="45.78379" lon="5.47078">
        <ele>258.981</ele>
        <time>2017-07-17T07:31:32Z</time>
      </trkpt>
      <trkpt lat="45.78377" lon="5.47086">
        <ele>259.706</ele>
        <time>2017-07-17T07:31:36Z</time>
      </trkpt>
      <trkpt lat="45.78374" lon="5.47094">
        <ele>259.456</ele>
        <time>2017-07-17T07:31:40Z</time>
      </trkpt>
      <trkpt lat="45.78373" lon="5.47098">
        <ele>259.471</ele>
        <time>2017-07-17T07:31:42Z</time>
      </trkpt>
      <trkpt lat="45.78368" lon="5.47104">
        <ele>260.205</ele>
        <time>2017-07-17T07:31:46Z</time>
      </trkpt>
      <trkpt lat="45.78358" lon="5.47125">
        <ele>260.762</ele>
        <time>2017-07-17T07:31:56Z</time>
      </trkpt>
      <trkpt lat="45.78339" lon="5.4716">
        <ele>261.877</ele>
        <time>2017-07-17T07:32:12Z</time>
      </trkpt>
      <trkpt lat="45.78321" lon="5.47185">
        <ele>262.637</ele>
        <time>2017-07-17T07:32:24Z</time>
      </trkpt>
      <trkpt lat="45.78303" lon="5.4721">
        <ele>263.654</ele>
        <time>2017-07-17T07:32:36Z</time>
      </trkpt>
      <trkpt lat="45.78289" lon="5.47227">
        <ele>264.623</ele>
        <time>2017-07-17T07:32:46Z</time>
      </trkpt>
      <trkpt lat="45.78282" lon="5.47235">
        <ele>265.421</ele>
        <time>2017-07-17T07:32:52Z</time>
      </trkpt>
      <trkpt lat="45.78276" lon="5.4724">
        <ele>265.737</ele>
        <time>2017-07-17T07:32:56Z</time>
      </trkpt>
      <trkpt lat="45.78265" lon="5.47258">
        <ele>266.789</ele>
        <time>2017-07-17T07:33:06Z</time>
      </trkpt>
      <trkpt lat="45.78259" lon="5.47265">
        <ele>266.892</ele>
        <time>2017-07-17T07:33:11Z</time>
      </trkpt>
      <trkpt lat="45.78248" lon="5.47281">
        <ele>267.463</ele>
        <time>2017-07-17T07:33:21Z</time>
      </trkpt>
      <trkpt lat="45.78239" lon="5.47292">
        <ele>268.258</ele>
        <time>2017-07-17T07:33:28Z</time>
      </trkpt>
      <trkpt lat="45.78229" lon="5.47305">
        <ele>268.794</ele>
        <time>2017-07-17T07:33:36Z</time>
      </trkpt>
      <trkpt lat="45.78217" lon="5.47321">
        <ele>269.952</ele>
        <time>2017-07-17T07:33:47Z</time>
      </trkpt>
      <trkpt lat="45.78205" lon="5.47335">
        <ele>271.26</ele>
        <time>2017-07-17T07:33:57Z</time>
      </trkpt>
      <trkpt lat="45.782" lon="5.47338">
        <ele>272.297</ele>
        <time>2017-07-17T07:34:01Z</time>
      </trkpt>
      <trkpt lat="45.7819" lon="5.47346">
        <ele>272.356</ele>
        <time>2017-07-17T07:34:08Z</time>
      </trkpt>
      <trkpt lat="45.78183" lon="5.47351">
        <ele>272.676</ele>
        <time>2017-07-17T07:34:12Z</time>
      </trkpt>
      <trkpt lat="45.78164" lon="5.47363">
        <ele>272.785</ele>
        <time>2017-07-17T07:34:22Z</time>
      </trkpt>
      <trkpt lat="45.78147" lon="5.47372">
        <ele>272.963</ele>
        <time>2017-07-17T07:34:31Z</time>
      </trkpt>
      <trkpt lat="45.78131" lon="5.47383">
        <ele>273.275</ele>
        <time>2017-07-17T07:34:40Z</time>
      </trkpt>
      <trkpt lat="45.78108" lon="5.47396">
        <ele>273.704</ele>
        <time>2017-07-17T07:34:52Z</time>
      </trkpt>
      <trkpt lat="45.78089" lon="5.47409">
        <ele>272.686</ele>
        <time>2017-07-17T07:34:59Z</time>
      </trkpt>
      <trkpt lat="45.78087" lon="5.47412">
        <ele>272.511</ele>
        <time>2017-07-17T07:35:00Z</time>
      </trkpt>
      <trkpt lat="45.78077" lon="5.47416">
        <ele>272.798</ele>
        <time>2017-07-17T07:35:07Z</time>
      </trkpt>
      <trkpt lat="45.7806" lon="5.47428">
        <ele>271.528</ele>
        <time>2017-07-17T07:37:14Z</time>
      </trkpt>
      <trkpt lat="45.78034" lon="5.47445">
        <ele>269.523</ele>
        <time>2017-07-17T07:37:21Z</time>
      </trkpt>
      <trkpt lat="45.77998" lon="5.47467">
        <ele>270.22</ele>
        <time>2017-07-17T07:37:30Z</time>
      </trkpt>
      <trkpt lat="45.77968" lon="5.47483">
        <ele>271.785</ele>
        <time>2017-07-17T07:37:41Z</time>
      </trkpt>
      <trkpt lat="45.77934" lon="5.47502">
        <ele>273.118</ele>
        <time>2017-07-17T07:37:53Z</time>
      </trkpt>
      <trkpt lat="45.77919" lon="5.47513">
        <ele>272.4</ele>
        <time>2017-07-17T07:37:59Z</time>
      </trkpt>
      <trkpt lat="45.77899" lon="5.47525">
        <ele>273.854</ele>
        <time>2017-07-17T07:38:06Z</time>
      </trkpt>
      <trkpt lat="45.77884" lon="5.47534">
        <ele>274.679</ele>
        <time>2017-07-17T07:38:12Z</time>
      </trkpt>
      <trkpt lat="45.77861" lon="5.47546">
        <ele>275.401</ele>
        <time>2017-07-17T07:38:20Z</time>
      </trkpt>
      <trkpt lat="45.77829" lon="5.47567">
        <ele>276.006</ele>
        <time>2017-07-17T07:38:31Z</time>
      </trkpt>
      <trkpt lat="45.77804" lon="5.47594">
        <ele>274.471</ele>
        <time>2017-07-17T07:38:39Z</time>
      </trkpt>
      <trkpt lat="45.77782" lon="5.47622">
        <ele>271.149</ele>
        <time>2017-07-17T07:38:44Z</time>
      </trkpt>
      <trkpt lat="45.77771" lon="5.47637">
        <ele>270.252</ele>
        <time>2017-07-17T07:38:46Z</time>
      </trkpt>
      <trkpt lat="45.77731" lon="5.47691">
        <ele>268.718</ele>
        <time>2017-07-17T07:38:54Z</time>
      </trkpt>
      <trkpt lat="45.7772" lon="5.47713">
        <ele>269.196</ele>
        <time>2017-07-17T07:38:58Z</time>
      </trkpt>
      <trkpt lat="45.77715" lon="5.47731">
        <ele>268.248</ele>
        <time>2017-07-17T07:39:03Z</time>
      </trkpt>
      <trkpt lat="45.77715" lon="5.47741">
        <ele>268.579</ele>
        <time>2017-07-17T07:39:10Z</time>
      </trkpt>
      <trkpt lat="45.77715" lon="5.47759">
        <ele>267.705</ele>
        <time>2017-07-17T07:39:16Z</time>
      </trkpt>
      <trkpt lat="45.77721" lon="5.47803">
        <ele>266.148</ele>
        <time>2017-07-17T07:39:24Z</time>
      </trkpt>
      <trkpt lat="45.77738" lon="5.4786">
        <ele>264.824</ele>
        <time>2017-07-17T07:39:33Z</time>
      </trkpt>
      <trkpt lat="45.77771" lon="5.4795">
        <ele>263.287</ele>
        <time>2017-07-17T07:39:47Z</time>
      </trkpt>
      <trkpt lat="45.77784" lon="5.47992">
        <ele>263.962</ele>
        <time>2017-07-17T07:39:54Z</time>
      </trkpt>
      <trkpt lat="45.77803" lon="5.48044">
        <ele>264.526</ele>
        <time>2017-07-17T07:40:05Z</time>
      </trkpt>
      <trkpt lat="45.7781" lon="5.4806">
        <ele>264.873</ele>
        <time>2017-07-17T07:40:10Z</time>
      </trkpt>
      <trkpt lat="45.778" lon="5.48069">
        <ele>264.911</ele>
        <time>2017-07-17T07:40:14Z</time>
      </trkpt>
      <trkpt lat="45.77772" lon="5.48097">
        <ele>264.166</ele>
        <time>2017-07-17T07:40:23Z</time>
      </trkpt>
      <trkpt lat="45.77729" lon="5.48144">
        <ele>264.073</ele>
        <time>2017-07-17T07:40:37Z</time>
      </trkpt>
      <trkpt lat="45.77695" lon="5.48188">
        <ele>263.854</ele>
        <time>2017-07-17T07:40:50Z</time>
      </trkpt>
      <trkpt lat="45.77667" lon="5.48237">
        <ele>264.216</ele>
        <time>2017-07-17T07:41:02Z</time>
      </trkpt>
      <trkpt lat="45.77648" lon="5.4828">
        <ele>264.446</ele>
        <time>2017-07-17T07:41:11Z</time>
      </trkpt>
      <trkpt lat="45.7762" lon="5.48319">
        <ele>265.12</ele>
        <time>2017-07-17T07:41:22Z</time>
      </trkpt>
      <trkpt lat="45.77603" lon="5.48353">
        <ele>265.411</ele>
        <time>2017-07-17T07:41:31Z</time>
      </trkpt>
      <trkpt lat="45.77602" lon="5.48357">
        <ele>265.412</ele>
        <time>2017-07-17T07:41:32Z</time>
      </trkpt>
      <trkpt lat="45.77595" lon="5.48374">
        <ele>265.16</ele>
        <time>2017-07-17T07:41:37Z</time>
      </trkpt>
      <trkpt lat="45.77589" lon="5.48394">
        <ele>265.172</ele>
        <time>2017-07-17T07:41:43Z</time>
      </trkpt>
      <trkpt lat="45.77579" lon="5.48411">
        <ele>265.522</ele>
        <time>2017-07-17T07:41:48Z</time>
      </trkpt>
      <trkpt lat="45.77568" lon="5.4843">
        <ele>264.588</ele>
        <time>2017-07-17T07:41:54Z</time>
      </trkpt>
      <trkpt lat="45.77543" lon="5.48467">
        <ele>265.104</ele>
        <time>2017-07-17T07:42:04Z</time>
      </trkpt>
      <trkpt lat="45.77535" lon="5.48484">
        <ele>264.685</ele>
        <time>2017-07-17T07:42:09Z</time>
      </trkpt>
      <trkpt lat="45.77517" lon="5.48507">
        <ele>264.849</ele>
        <time>2017-07-17T07:42:16Z</time>
      </trkpt>
      <trkpt lat="45.77503" lon="5.48522">
        <ele>265.46</ele>
        <time>2017-07-17T07:42:22Z</time>
      </trkpt>
      <trkpt lat="45.77496" lon="5.48529">
        <ele>265.296</ele>
        <time>2017-07-17T07:42:25Z</time>
      </trkpt>
      <trkpt lat="45.77482" lon="5.48546">
        <ele>265.305</ele>
        <time>2017-07-17T07:42:31Z</time>
      </trkpt>
      <trkpt lat="45.77471" lon="5.48572">
        <ele>266.322</ele>
        <time>2017-07-17T07:42:39Z</time>
      </trkpt>
      <trkpt lat="45.77467" lon="5.4858">
        <ele>267.545</ele>
        <time>2017-07-17T07:42:42Z</time>
      </trkpt>
      <trkpt lat="45.77463" lon="5.48587">
        <ele>268.672</ele>
        <time>2017-07-17T07:42:46Z</time>
      </trkpt>
      <trkpt lat="45.77458" lon="5.4859">
        <ele>268.608</ele>
        <time>2017-07-17T07:42:52Z</time>
      </trkpt>
      <trkpt lat="45.77454" lon="5.48592">
        <ele>268.655</ele>
        <time>2017-07-17T07:42:58Z</time>
      </trkpt>
      <trkpt lat="45.77451" lon="5.48593">
        <ele>268.75</ele>
        <time>2017-07-17T07:43:00Z</time>
      </trkpt>
      <trkpt lat="45.7744" lon="5.48598">
        <ele>268.733</ele>
        <time>2017-07-17T07:43:06Z</time>
      </trkpt>
      <trkpt lat="45.77422" lon="5.48604">
        <ele>268.835</ele>
        <time>2017-07-17T07:43:13Z</time>
      </trkpt>
      <trkpt lat="45.77397" lon="5.48611">
        <ele>269.07</ele>
        <time>2017-07-17T07:43:22Z</time>
      </trkpt>
      <trkpt lat="45.77365" lon="5.48623">
        <ele>269.099</ele>
        <time>2017-07-17T07:43:33Z</time>
      </trkpt>
      <trkpt lat="45.77338" lon="5.48643">
        <ele>268.754</ele>
        <time>2017-07-17T07:43:42Z</time>
      </trkpt>
      <trkpt lat="45.77313" lon="5.48662">
        <ele>268.931</ele>
        <time>2017-07-17T07:43:50Z</time>
      </trkpt>
      <trkpt lat="45.77281" lon="5.48699">
        <ele>269.227</ele>
        <time>2017-07-17T07:44:02Z</time>
      </trkpt>
      <trkpt lat="45.77264" lon="5.48723">
        <ele>269.373</ele>
        <time>2017-07-17T07:44:09Z</time>
      </trkpt>
      <trkpt lat="45.77251" lon="5.48747">
        <ele>269.721</ele>
        <time>2017-07-17T07:44:16Z</time>
      </trkpt>
      <trkpt lat="45.77241" lon="5.48768">
        <ele>269.679</ele>
        <time>2017-07-17T07:44:22Z</time>
      </trkpt>
      <trkpt lat="45.77227" lon="5.48792">
        <ele>270.461</ele>
        <time>2017-07-17T07:44:28Z</time>
      </trkpt>
      <trkpt lat="45.77204" lon="5.48813">
        <ele>270.246</ele>
        <time>2017-07-17T07:44:35Z</time>
      </trkpt>
      <trkpt lat="45.77191" lon="5.4882">
        <ele>269.049</ele>
        <time>2017-07-17T07:44:38Z</time>
      </trkpt>
      <trkpt lat="45.77179" lon="5.48826">
        <ele>269.125</ele>
        <time>2017-07-17T07:44:41Z</time>
      </trkpt>
      <trkpt lat="45.7716" lon="5.48838">
        <ele>268.887</ele>
        <time>2017-07-17T07:44:46Z</time>
      </trkpt>
      <trkpt lat="45.7713" lon="5.48874">
        <ele>269.577</ele>
        <time>2017-07-17T07:44:56Z</time>
      </trkpt>
      <trkpt lat="45.77116" lon="5.48891">
        <ele>269.273</ele>
        <time>2017-07-17T07:45:01Z</time>
      </trkpt>
      <trkpt lat="45.77094" lon="5.48916">
        <ele>269.856</ele>
        <time>2017-07-17T07:45:10Z</time>
      </trkpt>
      <trkpt lat="45.77081" lon="5.48926">
        <ele>270.47</ele>
        <time>2017-07-17T07:45:17Z</time>
      </trkpt>
      <trkpt lat="45.77076" lon="5.48931">
        <ele>270.555</ele>
        <time>2017-07-17T07:45:19Z</time>
      </trkpt>
      <trkpt lat="45.77061" lon="5.48945">
        <ele>270.395</ele>
        <time>2017-07-17T07:45:23Z</time>
      </trkpt>
      <trkpt lat="45.77045" lon="5.48961">
        <ele>271.006</ele>
        <time>2017-07-17T07:45:28Z</time>
      </trkpt>
      <trkpt lat="45.77032" lon="5.48974">
        <ele>270.327</ele>
        <time>2017-07-17T07:45:34Z</time>
      </trkpt>
      <trkpt lat="45.77013" lon="5.48985">
        <ele>270.659</ele>
        <time>2017-07-17T07:45:41Z</time>
      </trkpt>
      <trkpt lat="45.77005" lon="5.4899">
        <ele>270.717</ele>
        <time>2017-07-17T07:45:46Z</time>
      </trkpt>
      <trkpt lat="45.76986" lon="5.48994">
        <ele>270.54</ele>
        <time>2017-07-17T07:45:53Z</time>
      </trkpt>
      <trkpt lat="45.76985" lon="5.49101">
        <ele>270.775</ele>
        <time>2017-07-17T07:45:59Z</time>
      </trkpt>
      <trkpt lat="45.76972" lon="5.49114">
        <ele>271.436</ele>
        <time>2017-07-17T07:46:05Z</time>
      </trkpt>
      <trkpt lat="45.76965" lon="5.49118">
        <ele>272.246</ele>
        <time>2017-07-17T07:46:08Z</time>
      </trkpt>
      <trkpt lat="45.76944" lon="5.49107">
        <ele>271.979</ele>
        <time>2017-07-17T07:46:15Z</time>
      </trkpt>
      <trkpt lat="45.76926" lon="5.49098">
        <ele>272.372</ele>
        <time>2017-07-17T07:46:21Z</time>
      </trkpt>
      <trkpt lat="45.76911" lon="5.49093">
        <ele>271.99</ele>
        <time>2017-07-17T07:46:28Z</time>
      </trkpt>
      <trkpt lat="45.76907" lon="5.49092">
        <ele>272.423</ele>
        <time>2017-07-17T07:46:30Z</time>
      </trkpt>
      <trkpt lat="45.76892" lon="5.49098">
        <ele>273.26</ele>
        <time>2017-07-17T07:46:35Z</time>
      </trkpt>
      <trkpt lat="45.76878" lon="5.49108">
        <ele>273.44</ele>
        <time>2017-07-17T07:46:41Z</time>
      </trkpt>
      <trkpt lat="45.76862" lon="5.49124">
        <ele>273.669</ele>
        <time>2017-07-17T07:46:48Z</time>
      </trkpt>
      <trkpt lat="45.76846" lon="5.49136">
        <ele>273.822</ele>
        <time>2017-07-17T07:46:54Z</time>
      </trkpt>
      <trkpt lat="45.76828" lon="5.4916">
        <ele>274.019</ele>
        <time>2017-07-17T07:47:02Z</time>
      </trkpt>
      <trkpt lat="45.76816" lon="5.49167">
        <ele>274.455</ele>
        <time>2017-07-17T07:47:07Z</time>
      </trkpt>
      <trkpt lat="45.76811" lon="5.49174">
        <ele>274.026</ele>
        <time>2017-07-17T07:47:10Z</time>
      </trkpt>
      <trkpt lat="45.76799" lon="5.49186">
        <ele>274.807</ele>
        <time>2017-07-17T07:47:17Z</time>
      </trkpt>
      <trkpt lat="45.76786" lon="5.49202">
        <ele>275.211</ele>
        <time>2017-07-17T07:47:23Z</time>
      </trkpt>
      <trkpt lat="45.76773" lon="5.49214">
        <ele>274.954</ele>
        <time>2017-07-17T07:47:29Z</time>
      </trkpt>
      <trkpt lat="45.76764" lon="5.49223">
        <ele>275.74</ele>
        <time>2017-07-17T07:47:32Z</time>
      </trkpt>
      <trkpt lat="45.76747" lon="5.49235">
        <ele>275.925</ele>
        <time>2017-07-17T07:47:38Z</time>
      </trkpt>
      <trkpt lat="45.76734" lon="5.49242">
        <ele>276.212</ele>
        <time>2017-07-17T07:47:43Z</time>
      </trkpt>
      <trkpt lat="45.76722" lon="5.49251">
        <ele>276.394</ele>
        <time>2017-07-17T07:47:48Z</time>
      </trkpt>
      <trkpt lat="45.76702" lon="5.49271">
        <ele>276.163</ele>
        <time>2017-07-17T07:47:55Z</time>
      </trkpt>
      <trkpt lat="45.76679" lon="5.49292">
        <ele>276.045</ele>
        <time>2017-07-17T07:48:03Z</time>
      </trkpt>
      <trkpt lat="45.7667" lon="5.49305">
        <ele>276.232</ele>
        <time>2017-07-17T07:48:08Z</time>
      </trkpt>
      <trkpt lat="45.76652" lon="5.49329">
        <ele>276.559</ele>
        <time>2017-07-17T07:48:15Z</time>
      </trkpt>
      <trkpt lat="45.7664" lon="5.49342">
        <ele>276.563</ele>
        <time>2017-07-17T07:48:20Z</time>
      </trkpt>
      <trkpt lat="45.76624" lon="5.49363">
        <ele>276.925</ele>
        <time>2017-07-17T07:48:27Z</time>
      </trkpt>
      <trkpt lat="45.766" lon="5.49389">
        <ele>276.981</ele>
        <time>2017-07-17T07:48:36Z</time>
      </trkpt>
      <trkpt lat="45.76586" lon="5.49404">
        <ele>277.207</ele>
        <time>2017-07-17T07:48:42Z</time>
      </trkpt>
      <trkpt lat="45.76563" lon="5.4943">
        <ele>276.725</ele>
        <time>2017-07-17T07:48:51Z</time>
      </trkpt>
      <trkpt lat="45.76548" lon="5.4945">
        <ele>276.92</ele>
        <time>2017-07-17T07:48:58Z</time>
      </trkpt>
      <trkpt lat="45.7653" lon="5.4947">
        <ele>277.243</ele>
        <time>2017-07-17T07:49:05Z</time>
      </trkpt>
      <trkpt lat="45.76517" lon="5.49483">
        <ele>277.126</ele>
        <time>2017-07-17T07:49:10Z</time>
      </trkpt>
      <trkpt lat="45.76502" lon="5.49512">
        <ele>277.782</ele>
        <time>2017-07-17T07:49:18Z</time>
      </trkpt>
      <trkpt lat="45.76498" lon="5.49523">
        <ele>277.726</ele>
        <time>2017-07-17T07:49:21Z</time>
      </trkpt>
      <trkpt lat="45.76489" lon="5.4954">
        <ele>277.99</ele>
        <time>2017-07-17T07:49:27Z</time>
      </trkpt>
      <trkpt lat="45.76471" lon="5.49567">
        <ele>278.009</ele>
        <time>2017-07-17T07:49:36Z</time>
      </trkpt>
      <trkpt lat="45.76462" lon="5.49585">
        <ele>278.231</ele>
        <time>2017-07-17T07:49:42Z</time>
      </trkpt>
      <trkpt lat="45.76454" lon="5.49597">
        <ele>278.736</ele>
        <time>2017-07-17T07:49:48Z</time>
      </trkpt>
      <trkpt lat="45.76442" lon="5.49608">
        <ele>279.068</ele>
        <time>2017-07-17T07:49:52Z</time>
      </trkpt>
      <trkpt lat="45.76436" lon="5.49621">
        <ele>279.832</ele>
        <time>2017-07-17T07:49:57Z</time>
      </trkpt>
      <trkpt lat="45.76425" lon="5.4964">
        <ele>280.512</ele>
        <time>2017-07-17T07:50:04Z</time>
      </trkpt>
      <trkpt lat="45.76416" lon="5.49654">
        <ele>281.473</ele>
        <time>2017-07-17T07:50:09Z</time>
      </trkpt>
      <trkpt lat="45.76415" lon="5.49669">
        <ele>282.093</ele>
        <time>2017-07-17T07:50:15Z</time>
      </trkpt>
      <trkpt lat="45.76401" lon="5.49693">
        <ele>283.003</ele>
        <time>2017-07-17T07:50:23Z</time>
      </trkpt>
      <trkpt lat="45.76385" lon="5.49711">
        <ele>282.672</ele>
        <time>2017-07-17T07:50:30Z</time>
      </trkpt>
      <trkpt lat="45.76369" lon="5.49729">
        <ele>282.961</ele>
        <time>2017-07-17T07:50:38Z</time>
      </trkpt>
      <trkpt lat="45.76364" lon="5.49739">
        <ele>282.902</ele>
        <time>2017-07-17T07:50:43Z</time>
      </trkpt>
      <trkpt lat="45.76364" lon="5.49742">
        <ele>282.924</ele>
        <time>2017-07-17T07:50:44Z</time>
      </trkpt>
      <trkpt lat="45.76356" lon="5.49765">
        <ele>282.887</ele>
        <time>2017-07-17T07:50:50Z</time>
      </trkpt>
      <trkpt lat="45.76352" lon="5.49774">
        <ele>283.229</ele>
        <time>2017-07-17T07:50:55Z</time>
      </trkpt>
      <trkpt lat="45.7634" lon="5.49784">
        <ele>283.382</ele>
        <time>2017-07-17T07:50:58Z</time>
      </trkpt>
      <trkpt lat="45.76323" lon="5.49814">
        <ele>284.222</ele>
        <time>2017-07-17T07:51:09Z</time>
      </trkpt>
      <trkpt lat="45.76315" lon="5.49827">
        <ele>285.589</ele>
        <time>2017-07-17T07:51:16Z</time>
      </trkpt>
      <trkpt lat="45.76312" lon="5.49834">
        <ele>285.711</ele>
        <time>2017-07-17T07:51:19Z</time>
      </trkpt>
      <trkpt lat="45.76306" lon="5.49844">
        <ele>286.064</ele>
        <time>2017-07-17T07:51:24Z</time>
      </trkpt>
      <trkpt lat="45.76296" lon="5.49861">
        <ele>286.431</ele>
        <time>2017-07-17T07:51:32Z</time>
      </trkpt>
      <trkpt lat="45.76279" lon="5.49882">
        <ele>286.864</ele>
        <time>2017-07-17T07:51:41Z</time>
      </trkpt>
      <trkpt lat="45.76268" lon="5.49897">
        <ele>287.6</ele>
        <time>2017-07-17T07:51:48Z</time>
      </trkpt>
      <trkpt lat="45.76265" lon="5.49902">
        <ele>288.207</ele>
        <time>2017-07-17T07:51:50Z</time>
      </trkpt>
      <trkpt lat="45.76264" lon="5.49911">
        <ele>288.717</ele>
        <time>2017-07-17T07:51:55Z</time>
      </trkpt>
      <trkpt lat="45.76252" lon="5.49927">
        <ele>289.337</ele>
        <time>2017-07-17T07:52:03Z</time>
      </trkpt>
      <trkpt lat="45.76244" lon="5.49944">
        <ele>290.572</ele>
        <time>2017-07-17T07:52:10Z</time>
      </trkpt>
      <trkpt lat="45.7624" lon="5.49957">
        <ele>291.909</ele>
        <time>2017-07-17T07:52:17Z</time>
      </trkpt>
      <trkpt lat="45.76229" lon="5.49969">
        <ele>292.328</ele>
        <time>2017-07-17T07:52:23Z</time>
      </trkpt>
      <trkpt lat="45.76219" lon="5.49983">
        <ele>292.778</ele>
        <time>2017-07-17T07:52:30Z</time>
      </trkpt>
      <trkpt lat="45.7621" lon="5.49993">
        <ele>293.14</ele>
        <time>2017-07-17T07:52:35Z</time>
      </trkpt>
      <trkpt lat="45.762" lon="5.5001">
        <ele>294.131</ele>
        <time>2017-07-17T07:52:42Z</time>
      </trkpt>
      <trkpt lat="45.76191" lon="5.50023">
        <ele>294.769</ele>
        <time>2017-07-17T07:52:49Z</time>
      </trkpt>
      <trkpt lat="45.76184" lon="5.50036">
        <ele>295.161</ele>
        <time>2017-07-17T07:52:56Z</time>
      </trkpt>
      <trkpt lat="45.76181" lon="5.50044">
        <ele>295.592</ele>
        <time>2017-07-17T07:52:59Z</time>
      </trkpt>
      <trkpt lat="45.76164" lon="5.50062">
        <ele>296.335</ele>
        <time>2017-07-17T07:53:08Z</time>
      </trkpt>
      <trkpt lat="45.76161" lon="5.50066">
        <ele>296.416</ele>
        <time>2017-07-17T07:53:10Z</time>
      </trkpt>
      <trkpt lat="45.76153" lon="5.5007">
        <ele>296.392</ele>
        <time>2017-07-17T07:53:14Z</time>
      </trkpt>
      <trkpt lat="45.76139" lon="5.5008">
        <ele>297.435</ele>
        <time>2017-07-17T07:53:22Z</time>
      </trkpt>
      <trkpt lat="45.7613" lon="5.50092">
        <ele>298.104</ele>
        <time>2017-07-17T07:53:30Z</time>
      </trkpt>
      <trkpt lat="45.76118" lon="5.50107">
        <ele>300.038</ele>
        <time>2017-07-17T07:53:40Z</time>
      </trkpt>
      <trkpt lat="45.76112" lon="5.50121">
        <ele>301.351</ele>
        <time>2017-07-17T07:53:50Z</time>
      </trkpt>
      <trkpt lat="45.76109" lon="5.5013">
        <ele>301.837</ele>
        <time>2017-07-17T07:53:55Z</time>
      </trkpt>
      <trkpt lat="45.761" lon="5.50144">
        <ele>303.256</ele>
        <time>2017-07-17T07:54:03Z</time>
      </trkpt>
      <trkpt lat="45.76085" lon="5.50163">
        <ele>303.919</ele>
        <time>2017-07-17T07:54:12Z</time>
      </trkpt>
      <trkpt lat="45.76072" lon="5.50181">
        <ele>304.777</ele>
        <time>2017-07-17T07:54:23Z</time>
      </trkpt>
      <trkpt lat="45.76068" lon="5.50191">
        <ele>305.333</ele>
        <time>2017-07-17T07:54:29Z</time>
      </trkpt>
      <trkpt lat="45.7607" lon="5.50197">
        <ele>306.071</ele>
        <time>2017-07-17T07:54:34Z</time>
      </trkpt>
      <trkpt lat="45.76069" lon="5.50202">
        <ele>306.183</ele>
        <time>2017-07-17T07:54:37Z</time>
      </trkpt>
      <trkpt lat="45.76067" lon="5.50205">
        <ele>306.54</ele>
        <time>2017-07-17T07:54:39Z</time>
      </trkpt>
      <trkpt lat="45.76068" lon="5.5021">
        <ele>307.15</ele>
        <time>2017-07-17T07:54:42Z</time>
      </trkpt>
      <trkpt lat="45.76069" lon="5.50224">
        <ele>309.065</ele>
        <time>2017-07-17T07:54:52Z</time>
      </trkpt>
      <trkpt lat="45.76069" lon="5.50229">
        <ele>309.541</ele>
        <time>2017-07-17T07:54:56Z</time>
      </trkpt>
      <trkpt lat="45.76067" lon="5.5024">
        <ele>310.827</ele>
        <time>2017-07-17T07:55:03Z</time>
      </trkpt>
      <trkpt lat="45.76062" lon="5.50248">
        <ele>311.238</ele>
        <time>2017-07-17T07:55:07Z</time>
      </trkpt>
      <trkpt lat="45.7606" lon="5.50263">
        <ele>312.995</ele>
        <time>2017-07-17T07:55:15Z</time>
      </trkpt>
      <trkpt lat="45.7605" lon="5.50276">
        <ele>315.109</ele>
        <time>2017-07-17T07:55:22Z</time>
      </trkpt>
      <trkpt lat="45.76041" lon="5.50288">
        <ele>316.954</ele>
        <time>2017-07-17T07:55:31Z</time>
      </trkpt>
      <trkpt lat="45.76035" lon="5.503">
        <ele>317.618</ele>
        <time>2017-07-17T07:55:38Z</time>
      </trkpt>
      <trkpt lat="45.76021" lon="5.50314">
        <ele>318.638</ele>
        <time>2017-07-17T07:55:46Z</time>
      </trkpt>
      <trkpt lat="45.76011" lon="5.50327">
        <ele>319.146</ele>
        <time>2017-07-17T07:55:54Z</time>
      </trkpt>
      <trkpt lat="45.75998" lon="5.50342">
        <ele>320.212</ele>
        <time>2017-07-17T07:56:03Z</time>
      </trkpt>
      <trkpt lat="45.75995" lon="5.50348">
        <ele>320.839</ele>
        <time>2017-07-17T07:56:07Z</time>
      </trkpt>
      <trkpt lat="45.75994" lon="5.50351">
        <ele>321.032</ele>
        <time>2017-07-17T07:56:10Z</time>
      </trkpt>
      <trkpt lat="45.75989" lon="5.50365">
        <ele>323.151</ele>
        <time>2017-07-17T07:56:19Z</time>
      </trkpt>
      <trkpt lat="45.75987" lon="5.50371">
        <ele>323.171</ele>
        <time>2017-07-17T07:56:22Z</time>
      </trkpt>
      <trkpt lat="45.75979" lon="5.50381">
        <ele>323.565</ele>
        <time>2017-07-17T07:56:28Z</time>
      </trkpt>
      <trkpt lat="45.75971" lon="5.50394">
        <ele>324.356</ele>
        <time>2017-07-17T07:56:37Z</time>
      </trkpt>
      <trkpt lat="45.75967" lon="5.50401">
        <ele>324.274</ele>
        <time>2017-07-17T07:56:41Z</time>
      </trkpt>
      <trkpt lat="45.75964" lon="5.50407">
        <ele>324.501</ele>
        <time>2017-07-17T07:56:45Z</time>
      </trkpt>
      <trkpt lat="45.75959" lon="5.50415">
        <ele>324.274</ele>
        <time>2017-07-17T07:56:50Z</time>
      </trkpt>
      <trkpt lat="45.75954" lon="5.50423">
        <ele>324.393</ele>
        <time>2017-07-17T07:56:58Z</time>
      </trkpt>
      <trkpt lat="45.75944" lon="5.50437">
        <ele>319.095</ele>
        <time>2017-07-17T08:00:17Z</time>
      </trkpt>
      <trkpt lat="45.75914" lon="5.50427">
        <ele>318.236</ele>
        <time>2017-07-17T08:00:22Z</time>
      </trkpt>
      <trkpt lat="45.75903" lon="5.5044">
        <ele>317.506</ele>
        <time>2017-07-17T08:00:26Z</time>
      </trkpt>
      <trkpt lat="45.75881" lon="5.50466">
        <ele>316.255</ele>
        <time>2017-07-17T08:00:31Z</time>
      </trkpt>
      <trkpt lat="45.75872" lon="5.50476">
        <ele>314.881</ele>
        <time>2017-07-17T08:00:33Z</time>
      </trkpt>
      <trkpt lat="45.75847" lon="5.50499">
        <ele>315.185</ele>
        <time>2017-07-17T08:00:39Z</time>
      </trkpt>
      <trkpt lat="45.75834" lon="5.5051">
        <ele>315.549</ele>
        <time>2017-07-17T08:00:43Z</time>
      </trkpt>
      <trkpt lat="45.7585" lon="5.50569">
        <ele>315.431</ele>
        <time>2017-07-17T08:00:47Z</time>
      </trkpt>
      <trkpt lat="45.75846" lon="5.50592">
        <ele>316.02</ele>
        <time>2017-07-17T08:00:51Z</time>
      </trkpt>
      <trkpt lat="45.75838" lon="5.50606">
        <ele>317.457</ele>
        <time>2017-07-17T08:00:57Z</time>
      </trkpt>
      <trkpt lat="45.7583" lon="5.50621">
        <ele>319.297</ele>
        <time>2017-07-17T08:01:06Z</time>
      </trkpt>
      <trkpt lat="45.75824" lon="5.50632">
        <ele>319.28</ele>
        <time>2017-07-17T08:01:13Z</time>
      </trkpt>
      <trkpt lat="45.75811" lon="5.50648">
        <ele>320.737</ele>
        <time>2017-07-17T08:01:22Z</time>
      </trkpt>
      <trkpt lat="45.75798" lon="5.5066">
        <ele>321.2</ele>
        <time>2017-07-17T08:01:30Z</time>
      </trkpt>
      <trkpt lat="45.75787" lon="5.5067">
        <ele>321.716</ele>
        <time>2017-07-17T08:01:37Z</time>
      </trkpt>
      <trkpt lat="45.75775" lon="5.5068">
        <ele>322.035</ele>
        <time>2017-07-17T08:01:44Z</time>
      </trkpt>
      <trkpt lat="45.75764" lon="5.50691">
        <ele>322.014</ele>
        <time>2017-07-17T08:01:51Z</time>
      </trkpt>
      <trkpt lat="45.75753" lon="5.50699">
        <ele>321.26</ele>
        <time>2017-07-17T08:01:57Z</time>
      </trkpt>
      <trkpt lat="45.75748" lon="5.50702">
        <ele>321.69</ele>
        <time>2017-07-17T08:02:00Z</time>
      </trkpt>
      <trkpt lat="45.75738" lon="5.50702">
        <ele>321.121</ele>
        <time>2017-07-17T08:02:04Z</time>
      </trkpt>
      <trkpt lat="45.75712" lon="5.50692">
        <ele>322.126</ele>
        <time>2017-07-17T08:02:14Z</time>
      </trkpt>
      <trkpt lat="45.75698" lon="5.50689">
        <ele>324.117</ele>
        <time>2017-07-17T08:02:21Z</time>
      </trkpt>
      <trkpt lat="45.75686" lon="5.50685">
        <ele>326.588</ele>
        <time>2017-07-17T08:02:28Z</time>
      </trkpt>
      <trkpt lat="45.75669" lon="5.50676">
        <ele>327.773</ele>
        <time>2017-07-17T08:02:38Z</time>
      </trkpt>
      <trkpt lat="45.75653" lon="5.50667">
        <ele>329.968</ele>
        <time>2017-07-17T08:02:49Z</time>
      </trkpt>
      <trkpt lat="45.7564" lon="5.5066">
        <ele>329.819</ele>
        <time>2017-07-17T08:02:58Z</time>
      </trkpt>
      <trkpt lat="45.75625" lon="5.50648">
        <ele>330.509</ele>
        <time>2017-07-17T08:03:07Z</time>
      </trkpt>
      <trkpt lat="45.7562" lon="5.50641">
        <ele>330.8</ele>
        <time>2017-07-17T08:03:10Z</time>
      </trkpt>
      <trkpt lat="45.75622" lon="5.50628">
        <ele>331.631</ele>
        <time>2017-07-17T08:03:17Z</time>
      </trkpt>
      <trkpt lat="45.75629" lon="5.50625">
        <ele>332.69</ele>
        <time>2017-07-17T08:03:23Z</time>
      </trkpt>
      <trkpt lat="45.75638" lon="5.50618">
        <ele>332.928</ele>
        <time>2017-07-17T08:03:30Z</time>
      </trkpt>
      <trkpt lat="45.75644" lon="5.50617">
        <ele>333.642</ele>
        <time>2017-07-17T08:03:34Z</time>
      </trkpt>
      <trkpt lat="45.75658" lon="5.5061">
        <ele>334.94</ele>
        <time>2017-07-17T08:03:44Z</time>
      </trkpt>
      <trkpt lat="45.75677" lon="5.50608">
        <ele>336.181</ele>
        <time>2017-07-17T08:03:55Z</time>
      </trkpt>
      <trkpt lat="45.75677" lon="5.506">
        <ele>336.642</ele>
        <time>2017-07-17T08:04:01Z</time>
      </trkpt>
      <trkpt lat="45.75666" lon="5.50596">
        <ele>337.116</ele>
        <time>2017-07-17T08:04:15Z</time>
      </trkpt>
      <trkpt lat="45.7566" lon="5.50595">
        <ele>337.528</ele>
        <time>2017-07-17T08:05:07Z</time>
      </trkpt>
      <trkpt lat="45.7564" lon="5.50595">
        <ele>337.572</ele>
        <time>2017-07-17T08:05:16Z</time>
      </trkpt>
      <trkpt lat="45.75614" lon="5.50599">
        <ele>337.606</ele>
        <time>2017-07-17T08:05:26Z</time>
      </trkpt>
      <trkpt lat="45.75598" lon="5.5061">
        <ele>337.606</ele>
        <time>2017-07-17T08:05:33Z</time>
      </trkpt>
      <trkpt lat="45.7558" lon="5.50647">
        <ele>338.71</ele>
        <time>2017-07-17T08:05:45Z</time>
      </trkpt>
      <trkpt lat="45.75567" lon="5.50671">
        <ele>339.925</ele>
        <time>2017-07-17T08:05:54Z</time>
      </trkpt>
      <trkpt lat="45.75547" lon="5.50686">
        <ele>340.886</ele>
        <time>2017-07-17T08:06:04Z</time>
      </trkpt>
      <trkpt lat="45.75525" lon="5.50684">
        <ele>341.624</ele>
        <time>2017-07-17T08:06:13Z</time>
      </trkpt>
      <trkpt lat="45.75503" lon="5.50675">
        <ele>342.523</ele>
        <time>2017-07-17T08:06:23Z</time>
      </trkpt>
      <trkpt lat="45.75482" lon="5.50666">
        <ele>343.544</ele>
        <time>2017-07-17T08:06:32Z</time>
      </trkpt>
      <trkpt lat="45.75464" lon="5.50667">
        <ele>344.746</ele>
        <time>2017-07-17T08:06:41Z</time>
      </trkpt>
      <trkpt lat="45.75439" lon="5.50684">
        <ele>344.812</ele>
        <time>2017-07-17T08:06:51Z</time>
      </trkpt>
      <trkpt lat="45.75418" lon="5.50711">
        <ele>345.718</ele>
        <time>2017-07-17T08:07:03Z</time>
      </trkpt>
      <trkpt lat="45.75402" lon="5.50739">
        <ele>346.894</ele>
        <time>2017-07-17T08:07:14Z</time>
      </trkpt>
      <trkpt lat="45.75383" lon="5.50758">
        <ele>347.869</ele>
        <time>2017-07-17T08:07:24Z</time>
      </trkpt>
      <trkpt lat="45.75358" lon="5.50767">
        <ele>348.379</ele>
        <time>2017-07-17T08:07:34Z</time>
      </trkpt>
      <trkpt lat="45.75336" lon="5.50761">
        <ele>349.273</ele>
        <time>2017-07-17T08:07:44Z</time>
      </trkpt>
      <trkpt lat="45.75314" lon="5.50749">
        <ele>350.259</ele>
        <time>2017-07-17T08:07:54Z</time>
      </trkpt>
      <trkpt lat="45.7529" lon="5.50733">
        <ele>350.913</ele>
        <time>2017-07-17T08:08:05Z</time>
      </trkpt>
      <trkpt lat="45.75267" lon="5.50734">
        <ele>351.505</ele>
        <time>2017-07-17T08:08:15Z</time>
      </trkpt>
      <trkpt lat="45.75256" lon="5.50741">
        <ele>351.955</ele>
        <time>2017-07-17T08:08:22Z</time>
      </trkpt>
      <trkpt lat="45.75244" lon="5.50754">
        <ele>352.456</ele>
        <time>2017-07-17T08:08:30Z</time>
      </trkpt>
      <trkpt lat="45.75218" lon="5.50769">
        <ele>353.428</ele>
        <time>2017-07-17T08:08:43Z</time>
      </trkpt>
      <trkpt lat="45.75196" lon="5.50785">
        <ele>354.237</ele>
        <time>2017-07-17T08:08:54Z</time>
      </trkpt>
      <trkpt lat="45.7518" lon="5.50805">
        <ele>354.19</ele>
        <time>2017-07-17T08:09:03Z</time>
      </trkpt>
      <trkpt lat="45.75157" lon="5.50836">
        <ele>353.455</ele>
        <time>2017-07-17T08:09:14Z</time>
      </trkpt>
      <trkpt lat="45.7513" lon="5.5086">
        <ele>353.987</ele>
        <time>2017-07-17T08:09:24Z</time>
      </trkpt>
      <trkpt lat="45.75109" lon="5.50889">
        <ele>354.138</ele>
        <time>2017-07-17T08:09:34Z</time>
      </trkpt>
      <trkpt lat="45.75095" lon="5.5093">
        <ele>353.791</ele>
        <time>2017-07-17T08:09:43Z</time>
      </trkpt>
      <trkpt lat="45.7508" lon="5.50964">
        <ele>353.948</ele>
        <time>2017-07-17T08:09:52Z</time>
      </trkpt>
      <trkpt lat="45.75059" lon="5.50995">
        <ele>353.666</ele>
        <time>2017-07-17T08:10:01Z</time>
      </trkpt>
      <trkpt lat="45.75034" lon="5.51011">
        <ele>353.843</ele>
        <time>2017-07-17T08:10:10Z</time>
      </trkpt>
      <trkpt lat="45.7501" lon="5.5103">
        <ele>354.334</ele>
        <time>2017-07-17T08:10:19Z</time>
      </trkpt>
      <trkpt lat="45.74989" lon="5.51057">
        <ele>353.935</ele>
        <time>2017-07-17T08:10:28Z</time>
      </trkpt>
      <trkpt lat="45.74975" lon="5.51078">
        <ele>353.611</ele>
        <time>2017-07-17T08:10:35Z</time>
      </trkpt>
      <trkpt lat="45.74955" lon="5.51109">
        <ele>353.671</ele>
        <time>2017-07-17T08:10:45Z</time>
      </trkpt>
      <trkpt lat="45.74933" lon="5.51141">
        <ele>354.164</ele>
        <time>2017-07-17T08:10:56Z</time>
      </trkpt>
      <trkpt lat="45.74912" lon="5.51171">
        <ele>354.345</ele>
        <time>2017-07-17T08:11:06Z</time>
      </trkpt>
      <trkpt lat="45.74896" lon="5.51193">
        <ele>354.32</ele>
        <time>2017-07-17T08:11:13Z</time>
      </trkpt>
      <trkpt lat="45.74861" lon="5.51234">
        <ele>354.157</ele>
        <time>2017-07-17T08:11:27Z</time>
      </trkpt>
      <trkpt lat="45.74828" lon="5.51273">
        <ele>353.752</ele>
        <time>2017-07-17T08:11:40Z</time>
      </trkpt>
      <trkpt lat="45.74798" lon="5.51295">
        <ele>354.304</ele>
        <time>2017-07-17T08:11:50Z</time>
      </trkpt>
      <trkpt lat="45.74767" lon="5.51314">
        <ele>354.448</ele>
        <time>2017-07-17T08:12:00Z</time>
      </trkpt>
      <trkpt lat="45.74728" lon="5.51335">
        <ele>354.285</ele>
        <time>2017-07-17T08:12:12Z</time>
      </trkpt>
      <trkpt lat="45.747" lon="5.51345">
        <ele>354.462</ele>
        <time>2017-07-17T08:12:21Z</time>
      </trkpt>
      <trkpt lat="45.74667" lon="5.51377">
        <ele>354.271</ele>
        <time>2017-07-17T08:12:33Z</time>
      </trkpt>
      <trkpt lat="45.74638" lon="5.51404">
        <ele>354.463</ele>
        <time>2017-07-17T08:12:43Z</time>
      </trkpt>
      <trkpt lat="45.74612" lon="5.51431">
        <ele>353.977</ele>
        <time>2017-07-17T08:12:52Z</time>
      </trkpt>
      <trkpt lat="45.74584" lon="5.51452">
        <ele>353.771</ele>
        <time>2017-07-17T08:13:01Z</time>
      </trkpt>
      <trkpt lat="45.74553" lon="5.51478">
        <ele>353.867</ele>
        <time>2017-07-17T08:13:11Z</time>
      </trkpt>
      <trkpt lat="45.74551" lon="5.51482">
        <ele>354.14</ele>
        <time>2017-07-17T08:13:12Z</time>
      </trkpt>
      <trkpt lat="45.74534" lon="5.51518">
        <ele>354.127</ele>
        <time>2017-07-17T08:13:21Z</time>
      </trkpt>
      <trkpt lat="45.74517" lon="5.51572">
        <ele>353.916</ele>
        <time>2017-07-17T08:13:32Z</time>
      </trkpt>
      <trkpt lat="45.74498" lon="5.51629">
        <ele>354.425</ele>
        <time>2017-07-17T08:13:45Z</time>
      </trkpt>
      <trkpt lat="45.7448" lon="5.51671">
        <ele>353.883</ele>
        <time>2017-07-17T08:13:55Z</time>
      </trkpt>
      <trkpt lat="45.74462" lon="5.51709">
        <ele>354.226</ele>
        <time>2017-07-17T08:14:04Z</time>
      </trkpt>
      <trkpt lat="45.74448" lon="5.51742">
        <ele>353.931</ele>
        <time>2017-07-17T08:14:11Z</time>
      </trkpt>
      <trkpt lat="45.74433" lon="5.51785">
        <ele>354.146</ele>
        <time>2017-07-17T08:14:20Z</time>
      </trkpt>
      <trkpt lat="45.74423" lon="5.51828">
        <ele>353.638</ele>
        <time>2017-07-17T08:14:28Z</time>
      </trkpt>
      <trkpt lat="45.74414" lon="5.51874">
        <ele>354.375</ele>
        <time>2017-07-17T08:14:37Z</time>
      </trkpt>
      <trkpt lat="45.74418" lon="5.51932">
        <ele>354.689</ele>
        <time>2017-07-17T08:14:48Z</time>
      </trkpt>
      <trkpt lat="45.74427" lon="5.51966">
        <ele>355.051</ele>
        <time>2017-07-17T08:14:56Z</time>
      </trkpt>
      <trkpt lat="45.7444" lon="5.51999">
        <ele>355.551</ele>
        <time>2017-07-17T08:15:04Z</time>
      </trkpt>
      <trkpt lat="45.7444" lon="5.52042">
        <ele>356.025</ele>
        <time>2017-07-17T08:15:13Z</time>
      </trkpt>
      <trkpt lat="45.74428" lon="5.52077">
        <ele>356.342</ele>
        <time>2017-07-17T08:15:22Z</time>
      </trkpt>
      <trkpt lat="45.74407" lon="5.52112">
        <ele>357.442</ele>
        <time>2017-07-17T08:15:32Z</time>
      </trkpt>
      <trkpt lat="45.74392" lon="5.52134">
        <ele>357.901</ele>
        <time>2017-07-17T08:15:39Z</time>
      </trkpt>
      <trkpt lat="45.74373" lon="5.52165">
        <ele>358.229</ele>
        <time>2017-07-17T08:15:48Z</time>
      </trkpt>
      <trkpt lat="45.74358" lon="5.52191">
        <ele>359.263</ele>
        <time>2017-07-17T08:15:56Z</time>
      </trkpt>
      <trkpt lat="45.74352" lon="5.52204">
        <ele>359.527</ele>
        <time>2017-07-17T08:16:00Z</time>
      </trkpt>
      <trkpt lat="45.74341" lon="5.52234">
        <ele>359.843</ele>
        <time>2017-07-17T08:16:08Z</time>
      </trkpt>
      <trkpt lat="45.74339" lon="5.52259">
        <ele>360.705</ele>
        <time>2017-07-17T08:16:14Z</time>
      </trkpt>
      <trkpt lat="45.74338" lon="5.52271">
        <ele>360.91</ele>
        <time>2017-07-17T08:16:17Z</time>
      </trkpt>
      <trkpt lat="45.74346" lon="5.52311">
        <ele>360.806</ele>
        <time>2017-07-17T08:16:27Z</time>
      </trkpt>
      <trkpt lat="45.74357" lon="5.52345">
        <ele>362.111</ele>
        <time>2017-07-17T08:16:36Z</time>
      </trkpt>
      <trkpt lat="45.74363" lon="5.52368">
        <ele>362.776</ele>
        <time>2017-07-17T08:16:42Z</time>
      </trkpt>
      <trkpt lat="45.74369" lon="5.52391">
        <ele>362.932</ele>
        <time>2017-07-17T08:16:48Z</time>
      </trkpt>
      <trkpt lat="45.7438" lon="5.52424">
        <ele>363.709</ele>
        <time>2017-07-17T08:16:57Z</time>
      </trkpt>
      <trkpt lat="45.74399" lon="5.52443">
        <ele>364.328</ele>
        <time>2017-07-17T08:17:05Z</time>
      </trkpt>
      <trkpt lat="45.74422" lon="5.52457">
        <ele>364.285</ele>
        <time>2017-07-17T08:17:13Z</time>
      </trkpt>
      <trkpt lat="45.74444" lon="5.5248">
        <ele>365.154</ele>
        <time>2017-07-17T08:17:22Z</time>
      </trkpt>
      <trkpt lat="45.74454" lon="5.52517">
        <ele>365.42</ele>
        <time>2017-07-17T08:17:31Z</time>
      </trkpt>
      <trkpt lat="45.74453" lon="5.52537">
        <ele>366.102</ele>
        <time>2017-07-17T08:17:36Z</time>
      </trkpt>
      <trkpt lat="45.74444" lon="5.52575">
        <ele>367.111</ele>
        <time>2017-07-17T08:17:46Z</time>
      </trkpt>
      <trkpt lat="45.74438" lon="5.52613">
        <ele>368.144</ele>
        <time>2017-07-17T08:17:57Z</time>
      </trkpt>
      <trkpt lat="45.74442" lon="5.52642">
        <ele>368.103</ele>
        <time>2017-07-17T08:18:05Z</time>
      </trkpt>
      <trkpt lat="45.7445" lon="5.52678">
        <ele>368.308</ele>
        <time>2017-07-17T08:18:14Z</time>
      </trkpt>
      <trkpt lat="45.74457" lon="5.52713">
        <ele>368.994</ele>
        <time>2017-07-17T08:18:23Z</time>
      </trkpt>
      <trkpt lat="45.74468" lon="5.5275">
        <ele>369.338</ele>
        <time>2017-07-17T08:18:33Z</time>
      </trkpt>
      <trkpt lat="45.74476" lon="5.52789">
        <ele>370.175</ele>
        <time>2017-07-17T08:18:42Z</time>
      </trkpt>
      <trkpt lat="45.74485" lon="5.52815">
        <ele>370.787</ele>
        <time>2017-07-17T08:18:49Z</time>
      </trkpt>
      <trkpt lat="45.74499" lon="5.52846">
        <ele>371.864</ele>
        <time>2017-07-17T08:18:58Z</time>
      </trkpt>
      <trkpt lat="45.7451" lon="5.5286">
        <ele>372.527</ele>
        <time>2017-07-17T08:19:04Z</time>
      </trkpt>
      <trkpt lat="45.74525" lon="5.52873">
        <ele>373.215</ele>
        <time>2017-07-17T08:19:10Z</time>
      </trkpt>
      <trkpt lat="45.74544" lon="5.52889">
        <ele>373.526</ele>
        <time>2017-07-17T08:19:17Z</time>
      </trkpt>
      <trkpt lat="45.74561" lon="5.52911">
        <ele>374.007</ele>
        <time>2017-07-17T08:19:24Z</time>
      </trkpt>
      <trkpt lat="45.74578" lon="5.52938">
        <ele>374.64</ele>
        <time>2017-07-17T08:19:32Z</time>
      </trkpt>
      <trkpt lat="45.74594" lon="5.52976">
        <ele>375.648</ele>
        <time>2017-07-17T08:19:42Z</time>
      </trkpt>
      <trkpt lat="45.74609" lon="5.53005">
        <ele>376.103</ele>
        <time>2017-07-17T08:19:51Z</time>
      </trkpt>
      <trkpt lat="45.74627" lon="5.53033">
        <ele>376.856</ele>
        <time>2017-07-17T08:20:00Z</time>
      </trkpt>
      <trkpt lat="45.74648" lon="5.53064">
        <ele>378.07</ele>
        <time>2017-07-17T08:20:11Z</time>
      </trkpt>
      <trkpt lat="45.74666" lon="5.53085">
        <ele>378.374</ele>
        <time>2017-07-17T08:20:19Z</time>
      </trkpt>
      <trkpt lat="45.74683" lon="5.53104">
        <ele>379.187</ele>
        <time>2017-07-17T08:20:27Z</time>
      </trkpt>
      <trkpt lat="45.74687" lon="5.53109">
        <ele>379.713</ele>
        <time>2017-07-17T08:20:29Z</time>
      </trkpt>
      <trkpt lat="45.74707" lon="5.53137">
        <ele>380.012</ele>
        <time>2017-07-17T08:20:38Z</time>
      </trkpt>
      <trkpt lat="45.74717" lon="5.53156">
        <ele>380.525</ele>
        <time>2017-07-17T08:20:45Z</time>
      </trkpt>
      <trkpt lat="45.7472" lon="5.53166">
        <ele>380.41</ele>
        <time>2017-07-17T08:20:48Z</time>
      </trkpt>
      <trkpt lat="45.74723" lon="5.53205">
        <ele>381.332</ele>
        <time>2017-07-17T08:20:59Z</time>
      </trkpt>
      <trkpt lat="45.74721" lon="5.53253">
        <ele>381.398</ele>
        <time>2017-07-17T08:21:10Z</time>
      </trkpt>
      <trkpt lat="45.74711" lon="5.53297">
        <ele>381.815</ele>
        <time>2017-07-17T08:21:21Z</time>
      </trkpt>
      <trkpt lat="45.74698" lon="5.53325">
        <ele>381.992</ele>
        <time>2017-07-17T08:21:29Z</time>
      </trkpt>
      <trkpt lat="45.7469" lon="5.53345">
        <ele>382.365</ele>
        <time>2017-07-17T08:21:36Z</time>
      </trkpt>
      <trkpt lat="45.74678" lon="5.53358">
        <ele>382.492</ele>
        <time>2017-07-17T08:21:43Z</time>
      </trkpt>
      <trkpt lat="45.74656" lon="5.53385">
        <ele>382.1</ele>
        <time>2017-07-17T08:21:52Z</time>
      </trkpt>
      <trkpt lat="45.74627" lon="5.53419">
        <ele>383.003</ele>
        <time>2017-07-17T08:22:04Z</time>
      </trkpt>
      <trkpt lat="45.74616" lon="5.53439">
        <ele>382.498</ele>
        <time>2017-07-17T08:22:10Z</time>
      </trkpt>
      <trkpt lat="45.74603" lon="5.53465">
        <ele>382.26</ele>
        <time>2017-07-17T08:22:17Z</time>
      </trkpt>
      <trkpt lat="45.74596" lon="5.53482">
        <ele>383.011</ele>
        <time>2017-07-17T08:22:23Z</time>
      </trkpt>
      <trkpt lat="45.74578" lon="5.53512">
        <ele>382.917</ele>
        <time>2017-07-17T08:22:33Z</time>
      </trkpt>
      <trkpt lat="45.7456" lon="5.53528">
        <ele>382.913</ele>
        <time>2017-07-17T08:22:40Z</time>
      </trkpt>
      <trkpt lat="45.74535" lon="5.53537">
        <ele>382.801</ele>
        <time>2017-07-17T08:22:49Z</time>
      </trkpt>
      <trkpt lat="45.74513" lon="5.53542">
        <ele>383.475</ele>
        <time>2017-07-17T08:22:57Z</time>
      </trkpt>
      <trkpt lat="45.74481" lon="5.5355">
        <ele>383.065</ele>
        <time>2017-07-17T08:23:09Z</time>
      </trkpt>
      <trkpt lat="45.74464" lon="5.53558">
        <ele>382.231</ele>
        <time>2017-07-17T08:23:15Z</time>
      </trkpt>
      <trkpt lat="45.74437" lon="5.5357">
        <ele>381.405</ele>
        <time>2017-07-17T08:23:23Z</time>
      </trkpt>
      <trkpt lat="45.74404" lon="5.53585">
        <ele>381.413</ele>
        <time>2017-07-17T08:23:32Z</time>
      </trkpt>
      <trkpt lat="45.74386" lon="5.53596">
        <ele>379.75</ele>
        <time>2017-07-17T08:23:37Z</time>
      </trkpt>
      <trkpt lat="45.74339" lon="5.5363">
        <ele>376.633</ele>
        <time>2017-07-17T08:23:47Z</time>
      </trkpt>
      <trkpt lat="45.74333" lon="5.53634">
        <ele>376.631</ele>
        <time>2017-07-17T08:23:48Z</time>
      </trkpt>
      <trkpt lat="45.74321" lon="5.53644">
        <ele>375.369</ele>
        <time>2017-07-17T08:23:50Z</time>
      </trkpt>
      <trkpt lat="45.74308" lon="5.53654">
        <ele>374.584</ele>
        <time>2017-07-17T08:23:52Z</time>
      </trkpt>
      <trkpt lat="45.74287" lon="5.53662">
        <ele>372.877</ele>
        <time>2017-07-17T08:23:55Z</time>
      </trkpt>
      <trkpt lat="45.74252" lon="5.53674">
        <ele>372.12</ele>
        <time>2017-07-17T08:24:00Z</time>
      </trkpt>
      <trkpt lat="45.74234" lon="5.53667">
        <ele>373.131</ele>
        <time>2017-07-17T08:24:04Z</time>
      </trkpt>
      <trkpt lat="45.74232" lon="5.53662">
        <ele>373.475</ele>
        <time>2017-07-17T08:24:05Z</time>
      </trkpt>
      <trkpt lat="45.74217" lon="5.53628">
        <ele>374.22</ele>
        <time>2017-07-17T08:24:14Z</time>
      </trkpt>
      <trkpt lat="45.742" lon="5.53596">
        <ele>372.85</ele>
        <time>2017-07-17T08:24:22Z</time>
      </trkpt>
      <trkpt lat="45.74183" lon="5.53567">
        <ele>373.108</ele>
        <time>2017-07-17T08:24:30Z</time>
      </trkpt>
      <trkpt lat="45.74161" lon="5.5353">
        <ele>372.354</ele>
        <time>2017-07-17T08:24:41Z</time>
      </trkpt>
      <trkpt lat="45.74142" lon="5.53498">
        <ele>372.102</ele>
        <time>2017-07-17T08:24:52Z</time>
      </trkpt>
      <trkpt lat="45.74126" lon="5.53472">
        <ele>372.627</ele>
        <time>2017-07-17T08:25:01Z</time>
      </trkpt>
      <trkpt lat="45.74111" lon="5.53452">
        <ele>372.485</ele>
        <time>2017-07-17T08:25:08Z</time>
      </trkpt>
      <trkpt lat="45.74081" lon="5.53442">
        <ele>370.84</ele>
        <time>2017-07-17T08:25:17Z</time>
      </trkpt>
      <trkpt lat="45.74055" lon="5.53439">
        <ele>369.171</ele>
        <time>2017-07-17T08:25:24Z</time>
      </trkpt>
      <trkpt lat="45.74016" lon="5.53439">
        <ele>367.069</ele>
        <time>2017-07-17T08:25:34Z</time>
      </trkpt>
      <trkpt lat="45.73988" lon="5.53441">
        <ele>365.645</ele>
        <time>2017-07-17T08:25:40Z</time>
      </trkpt>
      <trkpt lat="45.73974" lon="5.53441">
        <ele>364.647</ele>
        <time>2017-07-17T08:25:43Z</time>
      </trkpt>
      <trkpt lat="45.73942" lon="5.53439">
        <ele>362.899</ele>
        <time>2017-07-17T08:25:51Z</time>
      </trkpt>
      <trkpt lat="45.73895" lon="5.53435">
        <ele>360.895</ele>
        <time>2017-07-17T08:26:02Z</time>
      </trkpt>
      <trkpt lat="45.73881" lon="5.53435">
        <ele>360.536</ele>
        <time>2017-07-17T08:26:05Z</time>
      </trkpt>
      <trkpt lat="45.73858" lon="5.53457">
        <ele>357.918</ele>
        <time>2017-07-17T08:26:12Z</time>
      </trkpt>
      <trkpt lat="45.73856" lon="5.53465">
        <ele>357.598</ele>
        <time>2017-07-17T08:26:13Z</time>
      </trkpt>
      <trkpt lat="45.73849" lon="5.53478">
        <ele>357.111</ele>
        <time>2017-07-17T08:26:15Z</time>
      </trkpt>
      <trkpt lat="45.73822" lon="5.53483">
        <ele>354.184</ele>
        <time>2017-07-17T08:26:20Z</time>
      </trkpt>
      <trkpt lat="45.73802" lon="5.53481">
        <ele>352.633</ele>
        <time>2017-07-17T08:26:23Z</time>
      </trkpt>
      <trkpt lat="45.73782" lon="5.53498">
        <ele>351.726</ele>
        <time>2017-07-17T08:26:27Z</time>
      </trkpt>
      <trkpt lat="45.73779" lon="5.53504">
        <ele>352.725</ele>
        <time>2017-07-17T08:26:28Z</time>
      </trkpt>
      <trkpt lat="45.73769" lon="5.53524">
        <ele>352.909</ele>
        <time>2017-07-17T08:26:31Z</time>
      </trkpt>
      <trkpt lat="45.73745" lon="5.53543">
        <ele>351.238</ele>
        <time>2017-07-17T08:26:36Z</time>
      </trkpt>
      <trkpt lat="45.73729" lon="5.53565">
        <ele>349.928</ele>
        <time>2017-07-17T08:26:40Z</time>
      </trkpt>
      <trkpt lat="45.73727" lon="5.53583">
        <ele>350.782</ele>
        <time>2017-07-17T08:26:44Z</time>
      </trkpt>
      <trkpt lat="45.73729" lon="5.53587">
        <ele>351.126</ele>
        <time>2017-07-17T08:26:45Z</time>
      </trkpt>
      <trkpt lat="45.73742" lon="5.53619">
        <ele>351.419</ele>
        <time>2017-07-17T08:26:53Z</time>
      </trkpt>
      <trkpt lat="45.73761" lon="5.53659">
        <ele>351.839</ele>
        <time>2017-07-17T08:27:04Z</time>
      </trkpt>
      <trkpt lat="45.73782" lon="5.53709">
        <ele>353.246</ele>
        <time>2017-07-17T08:27:18Z</time>
      </trkpt>
      <trkpt lat="45.73799" lon="5.53752">
        <ele>354.223</ele>
        <time>2017-07-17T08:27:30Z</time>
      </trkpt>
      <trkpt lat="45.73808" lon="5.53776">
        <ele>354.723</ele>
        <time>2017-07-17T08:27:37Z</time>
      </trkpt>
      <trkpt lat="45.73816" lon="5.53804">
        <ele>354.563</ele>
        <time>2017-07-17T08:27:46Z</time>
      </trkpt>
      <trkpt lat="45.73825" lon="5.53835">
        <ele>356.04</ele>
        <time>2017-07-17T08:27:56Z</time>
      </trkpt>
      <trkpt lat="45.73829" lon="5.53848">
        <ele>357.523</ele>
        <time>2017-07-17T08:28:02Z</time>
      </trkpt>
      <trkpt lat="45.73826" lon="5.53852">
        <ele>357.827</ele>
        <time>2017-07-17T08:28:07Z</time>
      </trkpt>
      <trkpt lat="45.73804" lon="5.5387">
        <ele>354.178</ele>
        <time>2017-07-17T08:28:17Z</time>
      </trkpt>
      <trkpt lat="45.73803" lon="5.53879">
        <ele>353.21</ele>
        <time>2017-07-17T08:28:19Z</time>
      </trkpt>
      <trkpt lat="45.73797" lon="5.539">
        <ele>353.323</ele>
        <time>2017-07-17T08:28:25Z</time>
      </trkpt>
      <trkpt lat="45.73774" lon="5.53916">
        <ele>351.367</ele>
        <time>2017-07-17T08:28:33Z</time>
      </trkpt>
      <trkpt lat="45.73758" lon="5.53928">
        <ele>348.813</ele>
        <time>2017-07-17T08:28:40Z</time>
      </trkpt>
      <trkpt lat="45.73755" lon="5.53931">
        <ele>348.391</ele>
        <time>2017-07-17T08:28:42Z</time>
      </trkpt>
      <trkpt lat="45.73735" lon="5.53951">
        <ele>345.227</ele>
        <time>2017-07-17T08:28:49Z</time>
      </trkpt>
      <trkpt lat="45.73707" lon="5.53982">
        <ele>344.549</ele>
        <time>2017-07-17T08:28:57Z</time>
      </trkpt>
      <trkpt lat="45.73682" lon="5.54006">
        <ele>343.371</ele>
        <time>2017-07-17T08:29:04Z</time>
      </trkpt>
      <trkpt lat="45.73653" lon="5.5403">
        <ele>343.286</ele>
        <time>2017-07-17T08:29:13Z</time>
      </trkpt>
      <trkpt lat="45.73634" lon="5.54047">
        <ele>342.438</ele>
        <time>2017-07-17T08:29:19Z</time>
      </trkpt>
      <trkpt lat="45.73615" lon="5.54074">
        <ele>342.182</ele>
        <time>2017-07-17T08:29:27Z</time>
      </trkpt>
      <trkpt lat="45.73594" lon="5.54112">
        <ele>343.407</ele>
        <time>2017-07-17T08:29:37Z</time>
      </trkpt>
      <trkpt lat="45.73585" lon="5.54133">
        <ele>344.023</ele>
        <time>2017-07-17T08:29:44Z</time>
      </trkpt>
      <trkpt lat="45.73583" lon="5.54142">
        <ele>344.91</ele>
        <time>2017-07-17T08:29:47Z</time>
      </trkpt>
      <trkpt lat="45.73585" lon="5.5415">
        <ele>345.846</ele>
        <time>2017-07-17T08:29:53Z</time>
      </trkpt>
      <trkpt lat="45.73593" lon="5.54159">
        <ele>347.114</ele>
        <time>2017-07-17T08:30:00Z</time>
      </trkpt>
      <trkpt lat="45.73603" lon="5.54172">
        <ele>348.169</ele>
        <time>2017-07-17T08:30:08Z</time>
      </trkpt>
      <trkpt lat="45.73603" lon="5.54177">
        <ele>348.248</ele>
        <time>2017-07-17T08:30:10Z</time>
      </trkpt>
      <trkpt lat="45.73607" lon="5.54192">
        <ele>348.764</ele>
        <time>2017-07-17T08:30:18Z</time>
      </trkpt>
      <trkpt lat="45.73613" lon="5.54209">
        <ele>348.895</ele>
        <time>2017-07-17T08:30:25Z</time>
      </trkpt>
      <trkpt lat="45.73601" lon="5.54232">
        <ele>348.782</ele>
        <time>2017-07-17T08:30:31Z</time>
      </trkpt>
      <trkpt lat="45.73598" lon="5.54235">
        <ele>348.911</ele>
        <time>2017-07-17T08:30:36Z</time>
      </trkpt>
      <trkpt lat="45.73591" lon="5.54241">
        <ele>348.777</ele>
        <time>2017-07-17T08:32:42Z</time>
      </trkpt>
      <trkpt lat="45.73589" lon="5.54243">
        <ele>348.78</ele>
        <time>2017-07-17T08:32:43Z</time>
      </trkpt>
      <trkpt lat="45.73581" lon="5.54255">
        <ele>348.188</ele>
        <time>2017-07-17T08:32:47Z</time>
      </trkpt>
      <trkpt lat="45.73556" lon="5.54292">
        <ele>344.975</ele>
        <time>2017-07-17T08:32:54Z</time>
      </trkpt>
      <trkpt lat="45.73515" lon="5.54351">
        <ele>342.349</ele>
        <time>2017-07-17T08:33:03Z</time>
      </trkpt>
      <trkpt lat="45.73484" lon="5.54391">
        <ele>339.292</ele>
        <time>2017-07-17T08:33:09Z</time>
      </trkpt>
      <trkpt lat="45.73458" lon="5.54413">
        <ele>336.336</ele>
        <time>2017-07-17T08:33:13Z</time>
      </trkpt>
      <trkpt lat="45.734" lon="5.54433">
        <ele>332.862</ele>
        <time>2017-07-17T08:33:20Z</time>
      </trkpt>
      <trkpt lat="45.7338" lon="5.54438">
        <ele>333.257</ele>
        <time>2017-07-17T08:33:24Z</time>
      </trkpt>
      <trkpt lat="45.73371" lon="5.5442">
        <ele>333.583</ele>
        <time>2017-07-17T08:33:29Z</time>
      </trkpt>
      <trkpt lat="45.73366" lon="5.54402">
        <ele>334.944</ele>
        <time>2017-07-17T08:33:36Z</time>
      </trkpt>
      <trkpt lat="45.73363" lon="5.54391">
        <ele>336.549</ele>
        <time>2017-07-17T08:33:41Z</time>
      </trkpt>
      <trkpt lat="45.73356" lon="5.54366">
        <ele>338.752</ele>
        <time>2017-07-17T08:33:54Z</time>
      </trkpt>
      <trkpt lat="45.73355" lon="5.5436">
        <ele>339.342</ele>
        <time>2017-07-17T08:33:57Z</time>
      </trkpt>
      <trkpt lat="45.73354" lon="5.54356">
        <ele>339.53</ele>
        <time>2017-07-17T08:33:59Z</time>
      </trkpt>
      <trkpt lat="45.73353" lon="5.5435">
        <ele>339.856</ele>
        <time>2017-07-17T08:34:01Z</time>
      </trkpt>
      <trkpt lat="45.7334" lon="5.54331">
        <ele>341.707</ele>
        <time>2017-07-17T08:34:15Z</time>
      </trkpt>
      <trkpt lat="45.73325" lon="5.54317">
        <ele>342.176</ele>
        <time>2017-07-17T08:34:25Z</time>
      </trkpt>
      <trkpt lat="45.73308" lon="5.54295">
        <ele>342.203</ele>
        <time>2017-07-17T08:34:35Z</time>
      </trkpt>
      <trkpt lat="45.73287" lon="5.5427">
        <ele>343.269</ele>
        <time>2017-07-17T08:34:45Z</time>
      </trkpt>
      <trkpt lat="45.73262" lon="5.54254">
        <ele>343.772</ele>
        <time>2017-07-17T08:34:55Z</time>
      </trkpt>
      <trkpt lat="45.73237" lon="5.54239">
        <ele>344.125</ele>
        <time>2017-07-17T08:35:05Z</time>
      </trkpt>
      <trkpt lat="45.7322" lon="5.54217">
        <ele>344.962</ele>
        <time>2017-07-17T08:35:14Z</time>
      </trkpt>
      <trkpt lat="45.7321" lon="5.5419">
        <ele>345.582</ele>
        <time>2017-07-17T08:35:24Z</time>
      </trkpt>
      <trkpt lat="45.73205" lon="5.54183">
        <ele>345.951</ele>
        <time>2017-07-17T08:36:24Z</time>
      </trkpt>
      <trkpt lat="45.73203" lon="5.54181">
        <ele>344.366</ele>
        <time>2017-07-17T08:36:31Z</time>
      </trkpt>
      <trkpt lat="45.73159" lon="5.54144">
        <ele>337.916</ele>
        <time>2017-07-17T08:37:24Z</time>
      </trkpt>
      <trkpt lat="45.73138" lon="5.54139">
        <ele>334.771</ele>
        <time>2017-07-17T08:37:31Z</time>
      </trkpt>
      <trkpt lat="45.73118" lon="5.54136">
        <ele>331.507</ele>
        <time>2017-07-17T08:37:38Z</time>
      </trkpt>
      <trkpt lat="45.73102" lon="5.54133">
        <ele>329.289</ele>
        <time>2017-07-17T08:37:45Z</time>
      </trkpt>
      <trkpt lat="45.73096" lon="5.54126">
        <ele>328.254</ele>
        <time>2017-07-17T08:37:51Z</time>
      </trkpt>
      <trkpt lat="45.73098" lon="5.54089">
        <ele>326.12</ele>
        <time>2017-07-17T08:37:58Z</time>
      </trkpt>
      <trkpt lat="45.731" lon="5.54049">
        <ele>323.867</ele>
        <time>2017-07-17T08:38:07Z</time>
      </trkpt>
      <trkpt lat="45.73101" lon="5.54038">
        <ele>323.151</ele>
        <time>2017-07-17T08:38:09Z</time>
      </trkpt>
      <trkpt lat="45.73108" lon="5.54009">
        <ele>321.265</ele>
        <time>2017-07-17T08:38:14Z</time>
      </trkpt>
      <trkpt lat="45.73116" lon="5.53968">
        <ele>320.724</ele>
        <time>2017-07-17T08:38:21Z</time>
      </trkpt>
      <trkpt lat="45.73117" lon="5.53938">
        <ele>317.285</ele>
        <time>2017-07-17T08:38:27Z</time>
      </trkpt>
      <trkpt lat="45.73117" lon="5.53933">
        <ele>317.284</ele>
        <time>2017-07-17T08:38:28Z</time>
      </trkpt>
      <trkpt lat="45.73117" lon="5.53908">
        <ele>315.633</ele>
        <time>2017-07-17T08:38:32Z</time>
      </trkpt>
      <trkpt lat="45.73108" lon="5.53867">
        <ele>313.672</ele>
        <time>2017-07-17T08:38:39Z</time>
      </trkpt>
      <trkpt lat="45.73101" lon="5.53837">
        <ele>312.98</ele>
        <time>2017-07-17T08:38:43Z</time>
      </trkpt>
      <trkpt lat="45.7309" lon="5.53808">
        <ele>311.468</ele>
        <time>2017-07-17T08:38:47Z</time>
      </trkpt>
      <trkpt lat="45.73076" lon="5.53789">
        <ele>309.716</ele>
        <time>2017-07-17T08:38:50Z</time>
      </trkpt>
      <trkpt lat="45.7307" lon="5.53785">
        <ele>309.715</ele>
        <time>2017-07-17T08:38:51Z</time>
      </trkpt>
      <trkpt lat="45.73054" lon="5.53772">
        <ele>310.615</ele>
        <time>2017-07-17T08:38:55Z</time>
      </trkpt>
      <trkpt lat="45.73051" lon="5.53768">
        <ele>310.422</ele>
        <time>2017-07-17T08:38:56Z</time>
      </trkpt>
      <trkpt lat="45.73045" lon="5.53741">
        <ele>309.043</ele>
        <time>2017-07-17T08:39:01Z</time>
      </trkpt>
      <trkpt lat="45.73047" lon="5.53735">
        <ele>309.041</ele>
        <time>2017-07-17T08:39:02Z</time>
      </trkpt>
      <trkpt lat="45.73051" lon="5.53718">
        <ele>308.798</ele>
        <time>2017-07-17T08:39:05Z</time>
      </trkpt>
      <trkpt lat="45.73046" lon="5.53686">
        <ele>307.901</ele>
        <time>2017-07-17T08:39:11Z</time>
      </trkpt>
      <trkpt lat="45.73031" lon="5.53662">
        <ele>307.739</ele>
        <time>2017-07-17T08:39:18Z</time>
      </trkpt>
      <trkpt lat="45.73018" lon="5.53646">
        <ele>305.779</ele>
        <time>2017-07-17T08:39:25Z</time>
      </trkpt>
      <trkpt lat="45.73017" lon="5.53642">
        <ele>304.944</ele>
        <time>2017-07-17T08:39:27Z</time>
      </trkpt>
      <trkpt lat="45.73015" lon="5.53636">
        <ele>303.414</ele>
        <time>2017-07-17T08:39:34Z</time>
      </trkpt>
      <trkpt lat="45.73014" lon="5.53624">
        <ele>303.185</ele>
        <time>2017-07-17T08:40:13Z</time>
      </trkpt>
      <trkpt lat="45.73014" lon="5.53607">
        <ele>302.581</ele>
        <time>2017-07-17T08:40:21Z</time>
      </trkpt>
      <trkpt lat="45.73014" lon="5.53601">
        <ele>302.243</ele>
        <time>2017-07-17T08:40:26Z</time>
      </trkpt>
      <trkpt lat="45.73018" lon="5.53581">
        <ele>300.92</ele>
        <time>2017-07-17T08:40:33Z</time>
      </trkpt>
      <trkpt lat="45.7302" lon="5.53575">
        <ele>300.308</ele>
        <time>2017-07-17T08:40:38Z</time>
      </trkpt>
      <trkpt lat="45.73023" lon="5.53554">
        <ele>298.518</ele>
        <time>2017-07-17T08:40:48Z</time>
      </trkpt>
      <trkpt lat="45.73023" lon="5.53551">
        <ele>298.562</ele>
        <time>2017-07-17T08:41:16Z</time>
      </trkpt>
      <trkpt lat="45.73024" lon="5.53547">
        <ele>297.994</ele>
        <time>2017-07-17T08:41:26Z</time>
      </trkpt>
      <trkpt lat="45.73026" lon="5.53544">
        <ele>297.849</ele>
        <time>2017-07-17T08:41:31Z</time>
      </trkpt>
      <trkpt lat="45.73036" lon="5.53536">
        <ele>296.934</ele>
        <time>2017-07-17T08:41:42Z</time>
      </trkpt>
      <trkpt lat="45.73047" lon="5.53528">
        <ele>296.671</ele>
        <time>2017-07-17T08:41:52Z</time>
      </trkpt>
      <trkpt lat="45.73056" lon="5.5352">
        <ele>296.77</ele>
        <time>2017-07-17T08:42:00Z</time>
      </trkpt>
      <trkpt lat="45.73059" lon="5.53516">
        <ele>297.547</ele>
        <time>2017-07-17T08:42:09Z</time>
      </trkpt>
      <trkpt lat="45.73051" lon="5.53505">
        <ele>296.741</ele>
        <time>2017-07-17T08:42:33Z</time>
      </trkpt>
      <trkpt lat="45.7305" lon="5.53498">
        <ele>296.401</ele>
        <time>2017-07-17T08:42:37Z</time>
      </trkpt>
      <trkpt lat="45.73047" lon="5.53488">
        <ele>295.607</ele>
        <time>2017-07-17T08:42:42Z</time>
      </trkpt>
      <trkpt lat="45.73047" lon="5.53476">
        <ele>294.411</ele>
        <time>2017-07-17T08:42:46Z</time>
      </trkpt>
      <trkpt lat="45.73048" lon="5.53466">
        <ele>294.728</ele>
        <time>2017-07-17T08:42:52Z</time>
      </trkpt>
      <trkpt lat="45.73047" lon="5.53462">
        <ele>294.498</ele>
        <time>2017-07-17T08:42:54Z</time>
      </trkpt>
      <trkpt lat="45.73042" lon="5.5345">
        <ele>293.316</ele>
        <time>2017-07-17T08:42:59Z</time>
      </trkpt>
      <trkpt lat="45.73041" lon="5.53438">
        <ele>291.924</ele>
        <time>2017-07-17T08:43:05Z</time>
      </trkpt>
      <trkpt lat="45.73042" lon="5.53419">
        <ele>289.325</ele>
        <time>2017-07-17T08:43:11Z</time>
      </trkpt>
      <trkpt lat="45.73041" lon="5.5341">
        <ele>288.273</ele>
        <time>2017-07-17T08:43:13Z</time>
      </trkpt>
      <trkpt lat="45.73038" lon="5.53404">
        <ele>287.575</ele>
        <time>2017-07-17T08:43:15Z</time>
      </trkpt>
      <trkpt lat="45.73036" lon="5.53397">
        <ele>287.449</ele>
        <time>2017-07-17T08:43:17Z</time>
      </trkpt>
      <trkpt lat="45.73028" lon="5.53387">
        <ele>285.521</ele>
        <time>2017-07-17T08:43:22Z</time>
      </trkpt>
      <trkpt lat="45.73021" lon="5.53377">
        <ele>283.999</ele>
        <time>2017-07-17T08:43:29Z</time>
      </trkpt>
      <trkpt lat="45.73018" lon="5.53375">
        <ele>283.997</ele>
        <time>2017-07-17T08:43:42Z</time>
      </trkpt>
      <trkpt lat="45.7301" lon="5.53366">
        <ele>283.175</ele>
        <time>2017-07-17T08:43:48Z</time>
      </trkpt>
      <trkpt lat="45.73004" lon="5.53355">
        <ele>281.729</ele>
        <time>2017-07-17T08:43:55Z</time>
      </trkpt>
      <trkpt lat="45.73" lon="5.53351">
        <ele>281.387</ele>
        <time>2017-07-17T08:44:15Z</time>
      </trkpt>
      <trkpt lat="45.72998" lon="5.53347">
        <ele>280.995</ele>
        <time>2017-07-17T08:44:22Z</time>
      </trkpt>
      <trkpt lat="45.72997" lon="5.53344">
        <ele>279.846</ele>
        <time>2017-07-17T08:44:30Z</time>
      </trkpt>
      <trkpt lat="45.72995" lon="5.53339">
        <ele>279.741</ele>
        <time>2017-07-17T08:44:41Z</time>
      </trkpt>
      <trkpt lat="45.72994" lon="5.53334">
        <ele>279.503</ele>
        <time>2017-07-17T08:44:47Z</time>
      </trkpt>
      <trkpt lat="45.72988" lon="5.53315">
        <ele>278.611</ele>
        <time>2017-07-17T08:45:00Z</time>
      </trkpt>
      <trkpt lat="45.72989" lon="5.53311">
        <ele>278.59</ele>
        <time>2017-07-17T08:45:09Z</time>
      </trkpt>
      <trkpt lat="45.72988" lon="5.53307">
        <ele>278.133</ele>
        <time>2017-07-17T08:45:17Z</time>
      </trkpt>
      <trkpt lat="45.72983" lon="5.53289">
        <ele>277.485</ele>
        <time>2017-07-17T08:45:24Z</time>
      </trkpt>
      <trkpt lat="45.72981" lon="5.5328">
        <ele>276.141</ele>
        <time>2017-07-17T08:45:27Z</time>
      </trkpt>
      <trkpt lat="45.72982" lon="5.53256">
        <ele>273.847</ele>
        <time>2017-07-17T08:45:34Z</time>
      </trkpt>
      <trkpt lat="45.7299" lon="5.53243">
        <ele>272.428</ele>
        <time>2017-07-17T08:45:40Z</time>
      </trkpt>
      <trkpt lat="45.7299" lon="5.53237">
        <ele>271.883</ele>
        <time>2017-07-17T08:45:47Z</time>
      </trkpt>
      <trkpt lat="45.7299" lon="5.53234">
        <ele>271.353</ele>
        <time>2017-07-17T08:45:59Z</time>
      </trkpt>
      <trkpt lat="45.72985" lon="5.53223">
        <ele>269.789</ele>
        <time>2017-07-17T08:46:04Z</time>
      </trkpt>
      <trkpt lat="45.72975" lon="5.53208">
        <ele>267.217</ele>
        <time>2017-07-17T08:46:11Z</time>
      </trkpt>
      <trkpt lat="45.72971" lon="5.53197">
        <ele>265</ele>
        <time>2017-07-17T08:46:18Z</time>
      </trkpt>
      <trkpt lat="45.72968" lon="5.53187">
        <ele>263.946</ele>
        <time>2017-07-17T08:46:29Z</time>
      </trkpt>
      <trkpt lat="45.72967" lon="5.53184">
        <ele>262.526</ele>
        <time>2017-07-17T08:46:31Z</time>
      </trkpt>
      <trkpt lat="45.72967" lon="5.53171">
        <ele>260.473</ele>
        <time>2017-07-17T08:48:08Z</time>
      </trkpt>
      <trkpt lat="45.72967" lon="5.53167">
        <ele>260.473</ele>
        <time>2017-07-17T08:48:09Z</time>
      </trkpt>
      <trkpt lat="45.7297" lon="5.53142">
        <ele>257.561</ele>
        <time>2017-07-17T08:48:16Z</time>
      </trkpt>
      <trkpt lat="45.72978" lon="5.5312">
        <ele>255.253</ele>
        <time>2017-07-17T08:48:23Z</time>
      </trkpt>
      <trkpt lat="45.72983" lon="5.53094">
        <ele>252.675</ele>
        <time>2017-07-17T08:48:30Z</time>
      </trkpt>
      <trkpt lat="45.72987" lon="5.53065">
        <ele>249.851</ele>
        <time>2017-07-17T08:48:37Z</time>
      </trkpt>
      <trkpt lat="45.7299" lon="5.5305">
        <ele>248.934</ele>
        <time>2017-07-17T08:48:43Z</time>
      </trkpt>
      <trkpt lat="45.72989" lon="5.53038">
        <ele>247.677</ele>
        <time>2017-07-17T08:48:53Z</time>
      </trkpt>
      <trkpt lat="45.72989" lon="5.53035">
        <ele>247.547</ele>
        <time>2017-07-17T08:49:00Z</time>
      </trkpt>
      <trkpt lat="45.72992" lon="5.53031">
        <ele>246.556</ele>
        <time>2017-07-17T08:50:03Z</time>
      </trkpt>
      <trkpt lat="45.72992" lon="5.53027">
        <ele>246.433</ele>
        <time>2017-07-17T08:50:15Z</time>
      </trkpt>
      <trkpt lat="45.72991" lon="5.53019">
        <ele>245.291</ele>
        <time>2017-07-17T08:50:26Z</time>
      </trkpt>
      <trkpt lat="45.72988" lon="5.53015">
        <ele>243.985</ele>
        <time>2017-07-17T08:51:03Z</time>
      </trkpt>
      <trkpt lat="45.72985" lon="5.53011">
        <ele>242.033</ele>
        <time>2017-07-17T08:51:12Z</time>
      </trkpt>
      <trkpt lat="45.72982" lon="5.53009">
        <ele>240.959</ele>
        <time>2017-07-17T08:51:19Z</time>
      </trkpt>
      <trkpt lat="45.7298" lon="5.53008">
        <ele>240.688</ele>
        <time>2017-07-17T08:51:28Z</time>
      </trkpt>
      <trkpt lat="45.72976" lon="5.5301">
        <ele>239.461</ele>
        <time>2017-07-17T08:51:31Z</time>
      </trkpt>
      <trkpt lat="45.72963" lon="5.53023">
        <ele>236.36</ele>
        <time>2017-07-17T08:51:40Z</time>
      </trkpt>
      <trkpt lat="45.72957" lon="5.53025">
        <ele>235.223</ele>
        <time>2017-07-17T08:51:44Z</time>
      </trkpt>
      <trkpt lat="45.72949" lon="5.53022">
        <ele>232.865</ele>
        <time>2017-07-17T08:51:49Z</time>
      </trkpt>
      <trkpt lat="45.7294" lon="5.5302">
        <ele>231.186</ele>
        <time>2017-07-17T08:51:53Z</time>
      </trkpt>
      <trkpt lat="45.72935" lon="5.53018">
        <ele>229.168</ele>
        <time>2017-07-17T08:51:56Z</time>
      </trkpt>
      <trkpt lat="45.72924" lon="5.53009">
        <ele>225.168</ele>
        <time>2017-07-17T08:52:03Z</time>
      </trkpt>
      <trkpt lat="45.72922" lon="5.52989">
        <ele>221.19</ele>
        <time>2017-07-17T08:52:09Z</time>
      </trkpt>
      <trkpt lat="45.72921" lon="5.52985">
        <ele>221.192</ele>
        <time>2017-07-17T08:52:10Z</time>
      </trkpt>
      <trkpt lat="45.72915" lon="5.52971">
        <ele>218.952</ele>
        <time>2017-07-17T08:52:14Z</time>
      </trkpt>
      <trkpt lat="45.72911" lon="5.52959">
        <ele>216.755</ele>
        <time>2017-07-17T08:52:17Z</time>
      </trkpt>
      <trkpt lat="45.72904" lon="5.52937">
        <ele>214.204</ele>
        <time>2017-07-17T08:52:22Z</time>
      </trkpt>
      <trkpt lat="45.72901" lon="5.52926">
        <ele>211.748</ele>
        <time>2017-07-17T08:52:25Z</time>
      </trkpt>
      <trkpt lat="45.72898" lon="5.52916">
        <ele>211.525</ele>
        <time>2017-07-17T08:52:33Z</time>
      </trkpt>
      <trkpt lat="45.72895" lon="5.52914">
        <ele>211.389</ele>
        <time>2017-07-17T08:54:32Z</time>
      </trkpt>
      <trkpt lat="45.72895" lon="5.5291">
        <ele>211.025</ele>
        <time>2017-07-17T08:54:40Z</time>
      </trkpt>
      <trkpt lat="45.72903" lon="5.52896">
        <ele>210.613</ele>
        <time>2017-07-17T08:54:58Z</time>
      </trkpt>
      <trkpt lat="45.72927" lon="5.52867">
        <ele>210.973</ele>
        <time>2017-07-17T08:55:08Z</time>
      </trkpt>
      <trkpt lat="45.72945" lon="5.52834">
        <ele>210.127</ele>
        <time>2017-07-17T08:55:16Z</time>
      </trkpt>
      <trkpt lat="45.72972" lon="5.52775">
        <ele>210.604</ele>
        <time>2017-07-17T08:55:28Z</time>
      </trkpt>
      <trkpt lat="45.73001" lon="5.52717">
        <ele>210.018</ele>
        <time>2017-07-17T08:55:38Z</time>
      </trkpt>
      <trkpt lat="45.73035" lon="5.52657">
        <ele>209.301</ele>
        <time>2017-07-17T08:55:49Z</time>
      </trkpt>
      <trkpt lat="45.7306" lon="5.52612">
        <ele>208.838</ele>
        <time>2017-07-17T08:55:58Z</time>
      </trkpt>
      <trkpt lat="45.73098" lon="5.52547">
        <ele>208.589</ele>
        <time>2017-07-17T08:56:10Z</time>
      </trkpt>
      <trkpt lat="45.73132" lon="5.52484">
        <ele>208.763</ele>
        <time>2017-07-17T08:56:20Z</time>
      </trkpt>
      <trkpt lat="45.73158" lon="5.5243">
        <ele>209.183</ele>
        <time>2017-07-17T08:56:30Z</time>
      </trkpt>
      <trkpt lat="45.7319" lon="5.52368">
        <ele>209.929</ele>
        <time>2017-07-17T08:56:42Z</time>
      </trkpt>
      <trkpt lat="45.73234" lon="5.523">
        <ele>210.021</ele>
        <time>2017-07-17T08:56:55Z</time>
      </trkpt>
      <trkpt lat="45.73246" lon="5.52277">
        <ele>210.733</ele>
        <time>2017-07-17T08:56:59Z</time>
      </trkpt>
      <trkpt lat="45.73277" lon="5.5221">
        <ele>209.722</ele>
        <time>2017-07-17T08:57:09Z</time>
      </trkpt>
      <trkpt lat="45.73309" lon="5.52147">
        <ele>208.805</ele>
        <time>2017-07-17T08:57:18Z</time>
      </trkpt>
      <trkpt lat="45.73349" lon="5.5209">
        <ele>208.514</ele>
        <time>2017-07-17T08:57:29Z</time>
      </trkpt>
      <trkpt lat="45.73397" lon="5.52022">
        <ele>208.071</ele>
        <time>2017-07-17T08:57:42Z</time>
      </trkpt>
      <trkpt lat="45.7343" lon="5.51979">
        <ele>209.266</ele>
        <time>2017-07-17T08:57:51Z</time>
      </trkpt>
      <trkpt lat="45.7346" lon="5.51945">
        <ele>211.15</ele>
        <time>2017-07-17T08:58:01Z</time>
      </trkpt>
      <trkpt lat="45.7349" lon="5.51918">
        <ele>213.183</ele>
        <time>2017-07-17T08:58:12Z</time>
      </trkpt>
      <trkpt lat="45.73524" lon="5.51886">
        <ele>214.945</ele>
        <time>2017-07-17T08:58:25Z</time>
      </trkpt>
      <trkpt lat="45.73541" lon="5.51869">
        <ele>216.083</ele>
        <time>2017-07-17T08:58:34Z</time>
      </trkpt>
      <trkpt lat="45.73549" lon="5.51858">
        <ele>216.359</ele>
        <time>2017-07-17T08:58:39Z</time>
      </trkpt>
      <trkpt lat="45.73554" lon="5.51851">
        <ele>216.775</ele>
        <time>2017-07-17T08:58:43Z</time>
      </trkpt>
      <trkpt lat="45.73565" lon="5.51832">
        <ele>216.786</ele>
        <time>2017-07-17T08:58:52Z</time>
      </trkpt>
      <trkpt lat="45.73566" lon="5.51829">
        <ele>217.15</ele>
        <time>2017-07-17T08:58:53Z</time>
      </trkpt>
      <trkpt lat="45.73581" lon="5.51795">
        <ele>217.035</ele>
        <time>2017-07-17T08:59:04Z</time>
      </trkpt>
      <trkpt lat="45.73593" lon="5.51766">
        <ele>217.048</ele>
        <time>2017-07-17T08:59:12Z</time>
      </trkpt>
      <trkpt lat="45.7361" lon="5.51728">
        <ele>217.234</ele>
        <time>2017-07-17T08:59:21Z</time>
      </trkpt>
      <trkpt lat="45.73633" lon="5.51698">
        <ele>218.075</ele>
        <time>2017-07-17T08:59:30Z</time>
      </trkpt>
      <trkpt lat="45.73664" lon="5.5167">
        <ele>218.903</ele>
        <time>2017-07-17T08:59:41Z</time>
      </trkpt>
      <trkpt lat="45.73693" lon="5.51655">
        <ele>218.552</ele>
        <time>2017-07-17T08:59:50Z</time>
      </trkpt>
      <trkpt lat="45.73723" lon="5.51648">
        <ele>218.369</ele>
        <time>2017-07-17T09:00:00Z</time>
      </trkpt>
      <trkpt lat="45.7375" lon="5.51644">
        <ele>217.819</ele>
        <time>2017-07-17T09:00:08Z</time>
      </trkpt>
      <trkpt lat="45.73798" lon="5.51639">
        <ele>218.069</ele>
        <time>2017-07-17T09:00:20Z</time>
      </trkpt>
      <trkpt lat="45.73825" lon="5.51628">
        <ele>217.907</ele>
        <time>2017-07-17T09:00:26Z</time>
      </trkpt>
      <trkpt lat="45.73855" lon="5.5161">
        <ele>218.475</ele>
        <time>2017-07-17T09:00:33Z</time>
      </trkpt>
      <trkpt lat="45.73903" lon="5.51551">
        <ele>218.577</ele>
        <time>2017-07-17T09:00:47Z</time>
      </trkpt>
      <trkpt lat="45.73941" lon="5.51496">
        <ele>219.17</ele>
        <time>2017-07-17T09:00:58Z</time>
      </trkpt>
      <trkpt lat="45.73979" lon="5.51431">
        <ele>219.718</ele>
        <time>2017-07-17T09:01:10Z</time>
      </trkpt>
      <trkpt lat="45.74018" lon="5.51361">
        <ele>221.287</ele>
        <time>2017-07-17T09:01:24Z</time>
      </trkpt>
      <trkpt lat="45.7402" lon="5.51357">
        <ele>221.284</ele>
        <time>2017-07-17T09:01:25Z</time>
      </trkpt>
      <trkpt lat="45.74043" lon="5.51326">
        <ele>222.456</ele>
        <time>2017-07-17T09:01:35Z</time>
      </trkpt>
      <trkpt lat="45.74072" lon="5.51282">
        <ele>224.092</ele>
        <time>2017-07-17T09:01:47Z</time>
      </trkpt>
      <trkpt lat="45.74094" lon="5.51244">
        <ele>224.65</ele>
        <time>2017-07-17T09:01:57Z</time>
      </trkpt>
      <trkpt lat="45.74113" lon="5.51208">
        <ele>226.312</ele>
        <time>2017-07-17T09:02:07Z</time>
      </trkpt>
      <trkpt lat="45.74138" lon="5.51178">
        <ele>227.361</ele>
        <time>2017-07-17T09:02:17Z</time>
      </trkpt>
      <trkpt lat="45.74168" lon="5.5115">
        <ele>229.264</ele>
        <time>2017-07-17T09:02:29Z</time>
      </trkpt>
      <trkpt lat="45.74194" lon="5.51126">
        <ele>230.335</ele>
        <time>2017-07-17T09:02:40Z</time>
      </trkpt>
      <trkpt lat="45.74213" lon="5.51108">
        <ele>231.775</ele>
        <time>2017-07-17T09:02:48Z</time>
      </trkpt>
      <trkpt lat="45.74236" lon="5.51087">
        <ele>232.669</ele>
        <time>2017-07-17T09:02:57Z</time>
      </trkpt>
      <trkpt lat="45.74267" lon="5.51059">
        <ele>234.195</ele>
        <time>2017-07-17T09:03:10Z</time>
      </trkpt>
      <trkpt lat="45.74278" lon="5.51048">
        <ele>235.593</ele>
        <time>2017-07-17T09:03:17Z</time>
      </trkpt>
      <trkpt lat="45.74274" lon="5.51024">
        <ele>236.815</ele>
        <time>2017-07-17T09:03:30Z</time>
      </trkpt>
      <trkpt lat="45.74262" lon="5.51001">
        <ele>236.313</ele>
        <time>2017-07-17T09:03:37Z</time>
      </trkpt>
      <trkpt lat="45.74251" lon="5.50979">
        <ele>236.139</ele>
        <time>2017-07-17T09:03:44Z</time>
      </trkpt>
      <trkpt lat="45.7425" lon="5.50963">
        <ele>236.469</ele>
        <time>2017-07-17T09:03:51Z</time>
      </trkpt>
      <trkpt lat="45.74241" lon="5.50952">
        <ele>235.644</ele>
        <time>2017-07-17T09:05:06Z</time>
      </trkpt>
      <trkpt lat="45.74233" lon="5.50944">
        <ele>237.453</ele>
        <time>2017-07-17T09:05:14Z</time>
      </trkpt>
      <trkpt lat="45.74231" lon="5.50944">
        <ele>238.005</ele>
        <time>2017-07-17T09:05:39Z</time>
      </trkpt>
      <trkpt lat="45.74229" lon="5.5094">
        <ele>237.381</ele>
        <time>2017-07-17T09:05:50Z</time>
      </trkpt>
      <trkpt lat="45.74227" lon="5.50935">
        <ele>238.314</ele>
        <time>2017-07-17T09:05:57Z</time>
      </trkpt>
      <trkpt lat="45.74227" lon="5.50933">
        <ele>238.661</ele>
        <time>2017-07-17T09:06:05Z</time>
      </trkpt>
      <trkpt lat="45.74226" lon="5.5093">
        <ele>238.201</ele>
        <time>2017-07-17T09:06:12Z</time>
      </trkpt>
      <trkpt lat="45.74222" lon="5.50925">
        <ele>238.792</ele>
        <time>2017-07-17T09:06:25Z</time>
      </trkpt>
      <trkpt lat="45.7422" lon="5.50922">
        <ele>238.343</ele>
        <time>2017-07-17T09:06:27Z</time>
      </trkpt>
      <trkpt lat="45.74217" lon="5.50912">
        <ele>239.298</ele>
        <time>2017-07-17T09:06:36Z</time>
      </trkpt>
      <trkpt lat="45.74214" lon="5.50906">
        <ele>239.503</ele>
        <time>2017-07-17T09:06:47Z</time>
      </trkpt>
      <trkpt lat="45.74209" lon="5.50908">
        <ele>239.08</ele>
        <time>2017-07-17T09:07:06Z</time>
      </trkpt>
      <trkpt lat="45.74198" lon="5.50908">
        <ele>239.469</ele>
        <time>2017-07-17T09:07:13Z</time>
      </trkpt>
      <trkpt lat="45.74194" lon="5.50907">
        <ele>239.847</ele>
        <time>2017-07-17T09:07:17Z</time>
      </trkpt>
      <trkpt lat="45.74188" lon="5.50899">
        <ele>240.065</ele>
        <time>2017-07-17T09:07:22Z</time>
      </trkpt>
      <trkpt lat="45.74175" lon="5.50902">
        <ele>239.359</ele>
        <time>2017-07-17T09:07:29Z</time>
      </trkpt>
      <trkpt lat="45.74171" lon="5.50904">
        <ele>239.708</ele>
        <time>2017-07-17T09:07:34Z</time>
      </trkpt>
      <trkpt lat="45.74168" lon="5.50906">
        <ele>239.75</ele>
        <time>2017-07-17T09:07:42Z</time>
      </trkpt>
      <trkpt lat="45.74163" lon="5.50908">
        <ele>239.464</ele>
        <time>2017-07-17T09:07:50Z</time>
      </trkpt>
      <trkpt lat="45.74153" lon="5.50914">
        <ele>238.61</ele>
        <time>2017-07-17T09:07:59Z</time>
      </trkpt>
      <trkpt lat="45.74144" lon="5.50918">
        <ele>239.273</ele>
        <time>2017-07-17T09:08:08Z</time>
      </trkpt>
      <trkpt lat="45.74136" lon="5.5092">
        <ele>239.028</ele>
        <time>2017-07-17T09:08:16Z</time>
      </trkpt>
      <trkpt lat="45.74131" lon="5.50923">
        <ele>238.838</ele>
        <time>2017-07-17T09:08:25Z</time>
      </trkpt>
      <trkpt lat="45.74125" lon="5.50932">
        <ele>239.479</ele>
        <time>2017-07-17T09:08:36Z</time>
      </trkpt>
      <trkpt lat="45.74121" lon="5.50933">
        <ele>239.125</ele>
        <time>2017-07-17T09:08:53Z</time>
      </trkpt>
      <trkpt lat="45.74117" lon="5.50935">
        <ele>239.037</ele>
        <time>2017-07-17T09:09:03Z</time>
      </trkpt>
      <trkpt lat="45.74113" lon="5.5094">
        <ele>238.722</ele>
        <time>2017-07-17T09:09:12Z</time>
      </trkpt>
      <trkpt lat="45.74103" lon="5.50943">
        <ele>239.143</ele>
        <time>2017-07-17T09:09:22Z</time>
      </trkpt>
      <trkpt lat="45.74098" lon="5.50946">
        <ele>239.339</ele>
        <time>2017-07-17T09:09:31Z</time>
      </trkpt>
      <trkpt lat="45.74094" lon="5.50947">
        <ele>238.344</ele>
        <time>2017-07-17T09:09:39Z</time>
      </trkpt>
      <trkpt lat="45.74093" lon="5.5095">
        <ele>238.465</ele>
        <time>2017-07-17T09:09:43Z</time>
      </trkpt>
      <trkpt lat="45.74089" lon="5.50956">
        <ele>238.23</ele>
        <time>2017-07-17T09:09:49Z</time>
      </trkpt>
      <trkpt lat="45.7408" lon="5.50962">
        <ele>239.054</ele>
        <time>2017-07-17T09:10:00Z</time>
      </trkpt>
      <trkpt lat="45.74076" lon="5.50965">
        <ele>238.809</ele>
        <time>2017-07-17T09:10:08Z</time>
      </trkpt>
      <trkpt lat="45.74069" lon="5.50972">
        <ele>239.277</ele>
        <time>2017-07-17T09:10:19Z</time>
      </trkpt>
      <trkpt lat="45.7406" lon="5.50978">
        <ele>238.916</ele>
        <time>2017-07-17T09:10:29Z</time>
      </trkpt>
      <trkpt lat="45.74051" lon="5.50978">
        <ele>237.181</ele>
        <time>2017-07-17T09:10:38Z</time>
      </trkpt>
      <trkpt lat="45.74046" lon="5.50981">
        <ele>236.636</ele>
        <time>2017-07-17T09:10:46Z</time>
      </trkpt>
      <trkpt lat="45.7404" lon="5.50979">
        <ele>236.611</ele>
        <time>2017-07-17T09:10:54Z</time>
      </trkpt>
      <trkpt lat="45.74025" lon="5.50978">
        <ele>235.192</ele>
        <time>2017-07-17T09:13:24Z</time>
      </trkpt>
      <trkpt lat="45.74016" lon="5.50978">
        <ele>234.095</ele>
        <time>2017-07-17T09:13:29Z</time>
      </trkpt>
      <trkpt lat="45.74004" lon="5.50966">
        <ele>231.638</ele>
        <time>2017-07-17T09:13:36Z</time>
      </trkpt>
      <trkpt lat="45.73994" lon="5.50954">
        <ele>229.782</ele>
        <time>2017-07-17T09:13:42Z</time>
      </trkpt>
      <trkpt lat="45.73982" lon="5.50942">
        <ele>227.62</ele>
        <time>2017-07-17T09:13:47Z</time>
      </trkpt>
      <trkpt lat="45.73973" lon="5.50929">
        <ele>226.465</ele>
        <time>2017-07-17T09:13:53Z</time>
      </trkpt>
      <trkpt lat="45.73968" lon="5.50923">
        <ele>224.758</ele>
        <time>2017-07-17T09:13:56Z</time>
      </trkpt>
      <trkpt lat="45.7396" lon="5.5091">
        <ele>222.155</ele>
        <time>2017-07-17T09:14:02Z</time>
      </trkpt>
      <trkpt lat="45.73952" lon="5.50901">
        <ele>221.451</ele>
        <time>2017-07-17T09:14:06Z</time>
      </trkpt>
      <trkpt lat="45.73945" lon="5.50893">
        <ele>219.266</ele>
        <time>2017-07-17T09:14:11Z</time>
      </trkpt>
      <trkpt lat="45.73937" lon="5.50884">
        <ele>217.446</ele>
        <time>2017-07-17T09:14:16Z</time>
      </trkpt>
      <trkpt lat="45.73935" lon="5.50881">
        <ele>216.396</ele>
        <time>2017-07-17T09:14:17Z</time>
      </trkpt>
      <trkpt lat="45.73931" lon="5.50869">
        <ele>215.888</ele>
        <time>2017-07-17T09:14:21Z</time>
      </trkpt>
      <trkpt lat="45.7393" lon="5.50863">
        <ele>216.218</ele>
        <time>2017-07-17T09:14:23Z</time>
      </trkpt>
      <trkpt lat="45.73926" lon="5.50851">
        <ele>216.195</ele>
        <time>2017-07-17T09:14:27Z</time>
      </trkpt>
      <trkpt lat="45.73924" lon="5.50837">
        <ele>216.465</ele>
        <time>2017-07-17T09:14:32Z</time>
      </trkpt>
      <trkpt lat="45.73925" lon="5.50823">
        <ele>215.518</ele>
        <time>2017-07-17T09:14:36Z</time>
      </trkpt>
      <trkpt lat="45.73924" lon="5.50816">
        <ele>214.875</ele>
        <time>2017-07-17T09:14:41Z</time>
      </trkpt>
      <trkpt lat="45.73921" lon="5.50812">
        <ele>214.037</ele>
        <time>2017-07-17T09:14:48Z</time>
      </trkpt>
      <trkpt lat="45.73921" lon="5.50808">
        <ele>214.716</ele>
        <time>2017-07-17T09:14:55Z</time>
      </trkpt>
      <trkpt lat="45.7392" lon="5.50804">
        <ele>214.531</ele>
        <time>2017-07-17T09:15:03Z</time>
      </trkpt>
      <trkpt lat="45.73922" lon="5.50803">
        <ele>214.596</ele>
        <time>2017-07-17T09:16:16Z</time>
      </trkpt>
      <trkpt lat="45.73923" lon="5.50797">
        <ele>214.511</ele>
        <time>2017-07-17T09:16:19Z</time>
      </trkpt>
      <trkpt lat="45.73923" lon="5.50783">
        <ele>214.265</ele>
        <time>2017-07-17T09:16:26Z</time>
      </trkpt>
      <trkpt lat="45.73929" lon="5.50764">
        <ele>214.235</ele>
        <time>2017-07-17T09:16:35Z</time>
      </trkpt>
      <trkpt lat="45.73938" lon="5.50747">
        <ele>213.555</ele>
        <time>2017-07-17T09:16:43Z</time>
      </trkpt>
      <trkpt lat="45.73941" lon="5.50739">
        <ele>213.514</ele>
        <time>2017-07-17T09:16:46Z</time>
      </trkpt>
      <trkpt lat="45.73945" lon="5.50713">
        <ele>214.415</ele>
        <time>2017-07-17T09:16:56Z</time>
      </trkpt>
      <trkpt lat="45.73945" lon="5.50696">
        <ele>215.336</ele>
        <time>2017-07-17T09:17:03Z</time>
      </trkpt>
      <trkpt lat="45.73949" lon="5.50684">
        <ele>216.051</ele>
        <time>2017-07-17T09:17:11Z</time>
      </trkpt>
      <trkpt lat="45.7395" lon="5.50677">
        <ele>215.426</ele>
        <time>2017-07-17T09:17:29Z</time>
      </trkpt>
      <trkpt lat="45.73952" lon="5.50659">
        <ele>215.308</ele>
        <time>2017-07-17T09:17:37Z</time>
      </trkpt>
      <trkpt lat="45.73955" lon="5.50651">
        <ele>214.873</ele>
        <time>2017-07-17T09:17:43Z</time>
      </trkpt>
      <trkpt lat="45.73956" lon="5.50639">
        <ele>215.335</ele>
        <time>2017-07-17T09:19:56Z</time>
      </trkpt>
      <trkpt lat="45.73963" lon="5.50616">
        <ele>215.05</ele>
        <time>2017-07-17T09:20:05Z</time>
      </trkpt>
      <trkpt lat="45.73967" lon="5.50597">
        <ele>214.518</ele>
        <time>2017-07-17T09:20:13Z</time>
      </trkpt>
      <trkpt lat="45.73974" lon="5.50574">
        <ele>213.96</ele>
        <time>2017-07-17T09:20:23Z</time>
      </trkpt>
      <trkpt lat="45.73978" lon="5.50564">
        <ele>213.921</ele>
        <time>2017-07-17T09:20:36Z</time>
      </trkpt>
      <trkpt lat="45.7398" lon="5.50557">
        <ele>213.874</ele>
        <time>2017-07-17T09:20:42Z</time>
      </trkpt>
      <trkpt lat="45.73983" lon="5.50551">
        <ele>213.317</ele>
        <time>2017-07-17T09:20:48Z</time>
      </trkpt>
      <trkpt lat="45.73986" lon="5.50542">
        <ele>212.4</ele>
        <time>2017-07-17T09:20:52Z</time>
      </trkpt>
      <trkpt lat="45.73986" lon="5.5053">
        <ele>210.92</ele>
        <time>2017-07-17T09:20:57Z</time>
      </trkpt>
      <trkpt lat="45.73981" lon="5.50525">
        <ele>208.502</ele>
        <time>2017-07-17T09:21:01Z</time>
      </trkpt>
      <trkpt lat="45.73975" lon="5.50525">
        <ele>206.434</ele>
        <time>2017-07-17T09:21:04Z</time>
      </trkpt>
      <trkpt lat="45.73972" lon="5.50521">
        <ele>204.821</ele>
        <time>2017-07-17T09:21:06Z</time>
      </trkpt>
      <trkpt lat="45.7397" lon="5.50519">
        <ele>204.298</ele>
        <time>2017-07-17T09:21:08Z</time>
      </trkpt>
      <trkpt lat="45.7397" lon="5.50512">
        <ele>204.302</ele>
        <time>2017-07-17T09:21:14Z</time>
      </trkpt>
      <trkpt lat="45.7397" lon="5.50497">
        <ele>202.637</ele>
        <time>2017-07-17T09:22:21Z</time>
      </trkpt>
      <trkpt lat="45.73977" lon="5.50475">
        <ele>202.861</ele>
        <time>2017-07-17T09:22:27Z</time>
      </trkpt>
      <trkpt lat="45.73976" lon="5.50465">
        <ele>203.423</ele>
        <time>2017-07-17T09:22:32Z</time>
      </trkpt>
      <trkpt lat="45.73992" lon="5.50438">
        <ele>203.628</ele>
        <time>2017-07-17T09:22:40Z</time>
      </trkpt>
      <trkpt lat="45.74007" lon="5.50411">
        <ele>203.852</ele>
        <time>2017-07-17T09:22:48Z</time>
      </trkpt>
      <trkpt lat="45.74014" lon="5.5039">
        <ele>201.755</ele>
        <time>2017-07-17T09:22:52Z</time>
      </trkpt>
      <trkpt lat="45.74015" lon="5.50385">
        <ele>201.756</ele>
        <time>2017-07-17T09:22:53Z</time>
      </trkpt>
      <trkpt lat="45.74024" lon="5.50361">
        <ele>202.078</ele>
        <time>2017-07-17T09:22:58Z</time>
      </trkpt>
      <trkpt lat="45.74035" lon="5.50343">
        <ele>203.04</ele>
        <time>2017-07-17T09:23:04Z</time>
      </trkpt>
      <trkpt lat="45.74051" lon="5.50328">
        <ele>202.311</ele>
        <time>2017-07-17T09:23:10Z</time>
      </trkpt>
      <trkpt lat="45.74058" lon="5.50321">
        <ele>202.379</ele>
        <time>2017-07-17T09:23:13Z</time>
      </trkpt>
      <trkpt lat="45.74083" lon="5.50297">
        <ele>201.954</ele>
        <time>2017-07-17T09:23:22Z</time>
      </trkpt>
      <trkpt lat="45.74102" lon="5.50278">
        <ele>202.469</ele>
        <time>2017-07-17T09:23:29Z</time>
      </trkpt>
      <trkpt lat="45.74105" lon="5.50275">
        <ele>202.469</ele>
        <time>2017-07-17T09:23:30Z</time>
      </trkpt>
      <trkpt lat="45.74123" lon="5.5026">
        <ele>202.874</ele>
        <time>2017-07-17T09:23:39Z</time>
      </trkpt>
      <trkpt lat="45.74137" lon="5.50235">
        <ele>203.232</ele>
        <time>2017-07-17T09:23:46Z</time>
      </trkpt>
      <trkpt lat="45.74148" lon="5.50212">
        <ele>203.07</ele>
        <time>2017-07-17T09:23:54Z</time>
      </trkpt>
      <trkpt lat="45.7416" lon="5.50189">
        <ele>202.293</ele>
        <time>2017-07-17T09:24:01Z</time>
      </trkpt>
      <trkpt lat="45.74172" lon="5.50166">
        <ele>202.767</ele>
        <time>2017-07-17T09:24:08Z</time>
      </trkpt>
      <trkpt lat="45.74185" lon="5.50143">
        <ele>202.658</ele>
        <time>2017-07-17T09:24:14Z</time>
      </trkpt>
      <trkpt lat="45.74196" lon="5.50121">
        <ele>202.549</ele>
        <time>2017-07-17T09:24:20Z</time>
      </trkpt>
      <trkpt lat="45.74215" lon="5.50107">
        <ele>202.984</ele>
        <time>2017-07-17T09:24:27Z</time>
      </trkpt>
      <trkpt lat="45.74246" lon="5.50074">
        <ele>202.568</ele>
        <time>2017-07-17T09:24:37Z</time>
      </trkpt>
      <trkpt lat="45.74264" lon="5.50048">
        <ele>202.652</ele>
        <time>2017-07-17T09:24:45Z</time>
      </trkpt>
      <trkpt lat="45.74287" lon="5.50017">
        <ele>203.039</ele>
        <time>2017-07-17T09:24:55Z</time>
      </trkpt>
      <trkpt lat="45.74302" lon="5.50011">
        <ele>202.415</ele>
        <time>2017-07-17T09:25:01Z</time>
      </trkpt>
      <trkpt lat="45.74308" lon="5.50009">
        <ele>202.428</ele>
        <time>2017-07-17T09:25:03Z</time>
      </trkpt>
      <trkpt lat="45.74328" lon="5.49997">
        <ele>202.143</ele>
        <time>2017-07-17T09:25:11Z</time>
      </trkpt>
      <trkpt lat="45.74344" lon="5.49978">
        <ele>202.783</ele>
        <time>2017-07-17T09:25:20Z</time>
      </trkpt>
      <trkpt lat="45.74366" lon="5.4996">
        <ele>203.645</ele>
        <time>2017-07-17T09:25:29Z</time>
      </trkpt>
      <trkpt lat="45.74377" lon="5.49954">
        <ele>202.864</ele>
        <time>2017-07-17T09:25:33Z</time>
      </trkpt>
      <trkpt lat="45.74395" lon="5.49945">
        <ele>202.833</ele>
        <time>2017-07-17T09:25:38Z</time>
      </trkpt>
      <trkpt lat="45.74419" lon="5.49938">
        <ele>203.223</ele>
        <time>2017-07-17T09:25:47Z</time>
      </trkpt>
      <trkpt lat="45.74424" lon="5.49934">
        <ele>203.382</ele>
        <time>2017-07-17T09:25:49Z</time>
      </trkpt>
      <trkpt lat="45.74445" lon="5.49924">
        <ele>203.941</ele>
        <time>2017-07-17T09:25:57Z</time>
      </trkpt>
      <trkpt lat="45.74461" lon="5.49915">
        <ele>203.703</ele>
        <time>2017-07-17T09:26:03Z</time>
      </trkpt>
      <trkpt lat="45.74486" lon="5.49894">
        <ele>203.128</ele>
        <time>2017-07-17T09:26:11Z</time>
      </trkpt>
      <trkpt lat="45.74505" lon="5.49885">
        <ele>203.121</ele>
        <time>2017-07-17T09:26:18Z</time>
      </trkpt>
      <trkpt lat="45.74521" lon="5.49876">
        <ele>202.858</ele>
        <time>2017-07-17T09:26:25Z</time>
      </trkpt>
      <trkpt lat="45.7453" lon="5.49867">
        <ele>203.272</ele>
        <time>2017-07-17T09:26:29Z</time>
      </trkpt>
      <trkpt lat="45.74545" lon="5.49848">
        <ele>203.721</ele>
        <time>2017-07-17T09:26:37Z</time>
      </trkpt>
      <trkpt lat="45.7455" lon="5.49843">
        <ele>203.159</ele>
        <time>2017-07-17T09:26:39Z</time>
      </trkpt>
      <trkpt lat="45.7456" lon="5.49828">
        <ele>203.431</ele>
        <time>2017-07-17T09:26:44Z</time>
      </trkpt>
      <trkpt lat="45.74579" lon="5.49809">
        <ele>203.611</ele>
        <time>2017-07-17T09:26:52Z</time>
      </trkpt>
      <trkpt lat="45.74592" lon="5.49799">
        <ele>203.569</ele>
        <time>2017-07-17T09:26:58Z</time>
      </trkpt>
      <trkpt lat="45.74594" lon="5.49798">
        <ele>203.876</ele>
        <time>2017-07-17T09:27:05Z</time>
      </trkpt>
      <trkpt lat="45.746" lon="5.49793">
        <ele>204.28</ele>
        <time>2017-07-17T09:27:47Z</time>
      </trkpt>
      <trkpt lat="45.74608" lon="5.49781">
        <ele>203.654</ele>
        <time>2017-07-17T09:27:52Z</time>
      </trkpt>
      <trkpt lat="45.74612" lon="5.49762">
        <ele>203.647</ele>
        <time>2017-07-17T09:27:58Z</time>
      </trkpt>
      <trkpt lat="45.74613" lon="5.49756">
        <ele>203.502</ele>
        <time>2017-07-17T09:28:00Z</time>
      </trkpt>
      <trkpt lat="45.74611" lon="5.49749">
        <ele>203.624</ele>
        <time>2017-07-17T09:28:03Z</time>
      </trkpt>
      <trkpt lat="45.74614" lon="5.49725">
        <ele>205.016</ele>
        <time>2017-07-17T09:28:12Z</time>
      </trkpt>
      <trkpt lat="45.74625" lon="5.497">
        <ele>204.347</ele>
        <time>2017-07-17T09:28:19Z</time>
      </trkpt>
      <trkpt lat="45.7463" lon="5.49677">
        <ele>204.546</ele>
        <time>2017-07-17T09:28:26Z</time>
      </trkpt>
      <trkpt lat="45.74634" lon="5.49658">
        <ele>203.852</ele>
        <time>2017-07-17T09:28:30Z</time>
      </trkpt>
      <trkpt lat="45.74648" lon="5.49646">
        <ele>204.549</ele>
        <time>2017-07-17T09:28:36Z</time>
      </trkpt>
      <trkpt lat="45.7467" lon="5.49649">
        <ele>203.716</ele>
        <time>2017-07-17T09:28:42Z</time>
      </trkpt>
      <trkpt lat="45.74692" lon="5.49645">
        <ele>203.361</ele>
        <time>2017-07-17T09:28:48Z</time>
      </trkpt>
      <trkpt lat="45.74708" lon="5.49623">
        <ele>203.044</ele>
        <time>2017-07-17T09:28:54Z</time>
      </trkpt>
      <trkpt lat="45.74715" lon="5.49609">
        <ele>203.27</ele>
        <time>2017-07-17T09:28:57Z</time>
      </trkpt>
      <trkpt lat="45.74734" lon="5.49573">
        <ele>204.629</ele>
        <time>2017-07-17T09:29:05Z</time>
      </trkpt>
      <trkpt lat="45.7474" lon="5.49564">
        <ele>203.925</ele>
        <time>2017-07-17T09:29:07Z</time>
      </trkpt>
      <trkpt lat="45.74765" lon="5.49533">
        <ele>204.18</ele>
        <time>2017-07-17T09:29:16Z</time>
      </trkpt>
      <trkpt lat="45.74785" lon="5.49503">
        <ele>204.46</ele>
        <time>2017-07-17T09:29:24Z</time>
      </trkpt>
      <trkpt lat="45.74797" lon="5.49481">
        <ele>203.876</ele>
        <time>2017-07-17T09:29:29Z</time>
      </trkpt>
      <trkpt lat="45.7481" lon="5.49458">
        <ele>204.146</ele>
        <time>2017-07-17T09:29:35Z</time>
      </trkpt>
      <trkpt lat="45.74832" lon="5.49424">
        <ele>204.034</ele>
        <time>2017-07-17T09:29:44Z</time>
      </trkpt>
      <trkpt lat="45.74854" lon="5.49397">
        <ele>204.965</ele>
        <time>2017-07-17T09:29:53Z</time>
      </trkpt>
      <trkpt lat="45.74871" lon="5.49369">
        <ele>205.471</ele>
        <time>2017-07-17T09:29:59Z</time>
      </trkpt>
      <trkpt lat="45.74875" lon="5.49364">
        <ele>205.286</ele>
        <time>2017-07-17T09:30:00Z</time>
      </trkpt>
      <trkpt lat="45.74884" lon="5.49352">
        <ele>204.656</ele>
        <time>2017-07-17T09:30:03Z</time>
      </trkpt>
      <trkpt lat="45.74905" lon="5.49327">
        <ele>204.867</ele>
        <time>2017-07-17T09:30:11Z</time>
      </trkpt>
      <trkpt lat="45.74927" lon="5.49299">
        <ele>205.438</ele>
        <time>2017-07-17T09:30:20Z</time>
      </trkpt>
      <trkpt lat="45.74932" lon="5.49293">
        <ele>205.489</ele>
        <time>2017-07-17T09:30:23Z</time>
      </trkpt>
      <trkpt lat="45.74963" lon="5.49266">
        <ele>205.383</ele>
        <time>2017-07-17T09:30:32Z</time>
      </trkpt>
      <trkpt lat="45.74978" lon="5.49249">
        <ele>205.308</ele>
        <time>2017-07-17T09:30:38Z</time>
      </trkpt>
      <trkpt lat="45.75001" lon="5.49233">
        <ele>205.363</ele>
        <time>2017-07-17T09:30:45Z</time>
      </trkpt>
      <trkpt lat="45.75015" lon="5.4922">
        <ele>205.726</ele>
        <time>2017-07-17T09:30:50Z</time>
      </trkpt>
      <trkpt lat="45.75045" lon="5.492">
        <ele>206.477</ele>
        <time>2017-07-17T09:31:01Z</time>
      </trkpt>
      <trkpt lat="45.75075" lon="5.49179">
        <ele>206.149</ele>
        <time>2017-07-17T09:31:10Z</time>
      </trkpt>
      <trkpt lat="45.75103" lon="5.49162">
        <ele>206.423</ele>
        <time>2017-07-17T09:31:20Z</time>
      </trkpt>
      <trkpt lat="45.75121" lon="5.49139">
        <ele>205.743</ele>
        <time>2017-07-17T09:31:28Z</time>
      </trkpt>
      <trkpt lat="45.75138" lon="5.49111">
        <ele>206.071</ele>
        <time>2017-07-17T09:31:36Z</time>
      </trkpt>
      <trkpt lat="45.75156" lon="5.49081">
        <ele>205.996</ele>
        <time>2017-07-17T09:31:45Z</time>
      </trkpt>
      <trkpt lat="45.75178" lon="5.49049">
        <ele>205.812</ele>
        <time>2017-07-17T09:31:55Z</time>
      </trkpt>
      <trkpt lat="45.75202" lon="5.49013">
        <ele>205.499</ele>
        <time>2017-07-17T09:32:05Z</time>
      </trkpt>
      <trkpt lat="45.75237" lon="5.48966">
        <ele>205.186</ele>
        <time>2017-07-17T09:32:18Z</time>
      </trkpt>
      <trkpt lat="45.75257" lon="5.48935">
        <ele>205.408</ele>
        <time>2017-07-17T09:32:26Z</time>
      </trkpt>
      <trkpt lat="45.7528" lon="5.48898">
        <ele>204.43</ele>
        <time>2017-07-17T09:32:35Z</time>
      </trkpt>
      <trkpt lat="45.75322" lon="5.4883">
        <ele>204.626</ele>
        <time>2017-07-17T09:32:51Z</time>
      </trkpt>
      <trkpt lat="45.75367" lon="5.48759">
        <ele>204.974</ele>
        <time>2017-07-17T09:33:08Z</time>
      </trkpt>
      <trkpt lat="45.75393" lon="5.48708">
        <ele>204.677</ele>
        <time>2017-07-17T09:33:20Z</time>
      </trkpt>
      <trkpt lat="45.7542" lon="5.48655">
        <ele>204.977</ele>
        <time>2017-07-17T09:33:32Z</time>
      </trkpt>
      <trkpt lat="45.75445" lon="5.48609">
        <ele>204.807</ele>
        <time>2017-07-17T09:33:43Z</time>
      </trkpt>
      <trkpt lat="45.75472" lon="5.48556">
        <ele>205.155</ele>
        <time>2017-07-17T09:33:55Z</time>
      </trkpt>
      <trkpt lat="45.75488" lon="5.48528">
        <ele>205.33</ele>
        <time>2017-07-17T09:34:02Z</time>
      </trkpt>
      <trkpt lat="45.75509" lon="5.48497">
        <ele>205.189</ele>
        <time>2017-07-17T09:34:11Z</time>
      </trkpt>
      <trkpt lat="45.75511" lon="5.48494">
        <ele>205.444</ele>
        <time>2017-07-17T09:34:12Z</time>
      </trkpt>
      <trkpt lat="45.75512" lon="5.48484">
        <ele>205.503</ele>
        <time>2017-07-17T09:34:18Z</time>
      </trkpt>
      <trkpt lat="45.75509" lon="5.48484">
        <ele>205.301</ele>
        <time>2017-07-17T09:34:25Z</time>
      </trkpt>
      <trkpt lat="45.75507" lon="5.48481">
        <ele>205.601</ele>
        <time>2017-07-17T09:34:33Z</time>
      </trkpt>
      <trkpt lat="45.75508" lon="5.48472">
        <ele>206.202</ele>
        <time>2017-07-17T09:34:45Z</time>
      </trkpt>
      <trkpt lat="45.75516" lon="5.48453">
        <ele>206.118</ele>
        <time>2017-07-17T09:35:12Z</time>
      </trkpt>
      <trkpt lat="45.75534" lon="5.48415">
        <ele>206.329</ele>
        <time>2017-07-17T09:35:24Z</time>
      </trkpt>
      <trkpt lat="45.75554" lon="5.48382">
        <ele>205.571</ele>
        <time>2017-07-17T09:35:35Z</time>
      </trkpt>
      <trkpt lat="45.75577" lon="5.48348">
        <ele>205.807</ele>
        <time>2017-07-17T09:35:47Z</time>
      </trkpt>
      <trkpt lat="45.75602" lon="5.48316">
        <ele>205.629</ele>
        <time>2017-07-17T09:35:58Z</time>
      </trkpt>
      <trkpt lat="45.75626" lon="5.48287">
        <ele>205.503</ele>
        <time>2017-07-17T09:36:08Z</time>
      </trkpt>
      <trkpt lat="45.75652" lon="5.4826">
        <ele>205.361</ele>
        <time>2017-07-17T09:36:19Z</time>
      </trkpt>
      <trkpt lat="45.7568" lon="5.48236">
        <ele>206.357</ele>
        <time>2017-07-17T09:36:30Z</time>
      </trkpt>
      <trkpt lat="45.75715" lon="5.48208">
        <ele>205.898</ele>
        <time>2017-07-17T09:36:43Z</time>
      </trkpt>
      <trkpt lat="45.75746" lon="5.4819">
        <ele>205.519</ele>
        <time>2017-07-17T09:36:53Z</time>
      </trkpt>
      <trkpt lat="45.75782" lon="5.48166">
        <ele>205.751</ele>
        <time>2017-07-17T09:37:06Z</time>
      </trkpt>
      <trkpt lat="45.75817" lon="5.48144">
        <ele>205.179</ele>
        <time>2017-07-17T09:37:18Z</time>
      </trkpt>
      <trkpt lat="45.7585" lon="5.48121">
        <ele>205.931</ele>
        <time>2017-07-17T09:37:30Z</time>
      </trkpt>
      <trkpt lat="45.75885" lon="5.481">
        <ele>205.401</ele>
        <time>2017-07-17T09:37:41Z</time>
      </trkpt>
      <trkpt lat="45.75905" lon="5.48084">
        <ele>206.119</ele>
        <time>2017-07-17T09:37:49Z</time>
      </trkpt>
      <trkpt lat="45.75906" lon="5.48083">
        <ele>206.055</ele>
        <time>2017-07-17T09:37:54Z</time>
      </trkpt>
      <trkpt lat="45.75915" lon="5.4808">
        <ele>205.726</ele>
        <time>2017-07-17T09:39:59Z</time>
      </trkpt>
      <trkpt lat="45.75935" lon="5.4806">
        <ele>205.425</ele>
        <time>2017-07-17T09:40:06Z</time>
      </trkpt>
      <trkpt lat="45.75968" lon="5.4802">
        <ele>204.935</ele>
        <time>2017-07-17T09:40:16Z</time>
      </trkpt>
      <trkpt lat="45.76021" lon="5.47972">
        <ele>205.082</ele>
        <time>2017-07-17T09:40:31Z</time>
      </trkpt>
      <trkpt lat="45.76053" lon="5.47937">
        <ele>205.32</ele>
        <time>2017-07-17T09:40:41Z</time>
      </trkpt>
      <trkpt lat="45.76089" lon="5.47896">
        <ele>205.401</ele>
        <time>2017-07-17T09:40:53Z</time>
      </trkpt>
      <trkpt lat="45.76116" lon="5.47868">
        <ele>205.284</ele>
        <time>2017-07-17T09:41:03Z</time>
      </trkpt>
      <trkpt lat="45.76119" lon="5.47865">
        <ele>205.954</ele>
        <time>2017-07-17T09:41:09Z</time>
      </trkpt>
      <trkpt lat="45.76131" lon="5.47853">
        <ele>205.62</ele>
        <time>2017-07-17T09:41:22Z</time>
      </trkpt>
      <trkpt lat="45.76149" lon="5.47834">
        <ele>205.731</ele>
        <time>2017-07-17T09:41:30Z</time>
      </trkpt>
      <trkpt lat="45.76171" lon="5.47811">
        <ele>205.476</ele>
        <time>2017-07-17T09:41:39Z</time>
      </trkpt>
      <trkpt lat="45.76193" lon="5.47787">
        <ele>205.315</ele>
        <time>2017-07-17T09:41:49Z</time>
      </trkpt>
      <trkpt lat="45.76202" lon="5.47778">
        <ele>205.085</ele>
        <time>2017-07-17T09:41:53Z</time>
      </trkpt>
      <trkpt lat="45.76225" lon="5.47755">
        <ele>205.568</ele>
        <time>2017-07-17T09:42:03Z</time>
      </trkpt>
      <trkpt lat="45.76248" lon="5.47731">
        <ele>205.391</ele>
        <time>2017-07-17T09:42:12Z</time>
      </trkpt>
      <trkpt lat="45.76282" lon="5.47696">
        <ele>205.309</ele>
        <time>2017-07-17T09:42:25Z</time>
      </trkpt>
      <trkpt lat="45.76309" lon="5.47668">
        <ele>205.524</ele>
        <time>2017-07-17T09:42:35Z</time>
      </trkpt>
      <trkpt lat="45.76327" lon="5.4765">
        <ele>205.738</ele>
        <time>2017-07-17T09:42:43Z</time>
      </trkpt>
      <trkpt lat="45.76349" lon="5.47627">
        <ele>205.082</ele>
        <time>2017-07-17T09:42:52Z</time>
      </trkpt>
      <trkpt lat="45.76381" lon="5.47593">
        <ele>204.806</ele>
        <time>2017-07-17T09:43:04Z</time>
      </trkpt>
      <trkpt lat="45.76399" lon="5.47572">
        <ele>205.247</ele>
        <time>2017-07-17T09:43:11Z</time>
      </trkpt>
      <trkpt lat="45.76413" lon="5.47555">
        <ele>205.219</ele>
        <time>2017-07-17T09:43:17Z</time>
      </trkpt>
      <trkpt lat="45.76433" lon="5.47528">
        <ele>204.924</ele>
        <time>2017-07-17T09:43:25Z</time>
      </trkpt>
      <trkpt lat="45.76452" lon="5.47504">
        <ele>205.08</ele>
        <time>2017-07-17T09:43:33Z</time>
      </trkpt>
      <trkpt lat="45.76469" lon="5.47484">
        <ele>205.194</ele>
        <time>2017-07-17T09:43:42Z</time>
      </trkpt>
      <trkpt lat="45.76484" lon="5.47465">
        <ele>205.419</ele>
        <time>2017-07-17T09:43:49Z</time>
      </trkpt>
      <trkpt lat="45.76499" lon="5.47446">
        <ele>205.103</ele>
        <time>2017-07-17T09:43:55Z</time>
      </trkpt>
      <trkpt lat="45.76518" lon="5.47423">
        <ele>204.835</ele>
        <time>2017-07-17T09:44:03Z</time>
      </trkpt>
      <trkpt lat="45.76549" lon="5.47389">
        <ele>205.324</ele>
        <time>2017-07-17T09:44:13Z</time>
      </trkpt>
      <trkpt lat="45.7658" lon="5.47356">
        <ele>205.288</ele>
        <time>2017-07-17T09:44:24Z</time>
      </trkpt>
      <trkpt lat="45.76613" lon="5.47329">
        <ele>205.187</ele>
        <time>2017-07-17T09:44:34Z</time>
      </trkpt>
      <trkpt lat="45.76653" lon="5.47302">
        <ele>205.184</ele>
        <time>2017-07-17T09:44:46Z</time>
      </trkpt>
      <trkpt lat="45.76676" lon="5.47286">
        <ele>205.318</ele>
        <time>2017-07-17T09:44:53Z</time>
      </trkpt>
      <trkpt lat="45.76708" lon="5.47264">
        <ele>205.402</ele>
        <time>2017-07-17T09:45:03Z</time>
      </trkpt>
      <trkpt lat="45.76742" lon="5.47238">
        <ele>205.215</ele>
        <time>2017-07-17T09:45:13Z</time>
      </trkpt>
      <trkpt lat="45.76775" lon="5.4721">
        <ele>205.299</ele>
        <time>2017-07-17T09:45:23Z</time>
      </trkpt>
      <trkpt lat="45.76816" lon="5.47173">
        <ele>204.994</ele>
        <time>2017-07-17T09:45:35Z</time>
      </trkpt>
      <trkpt lat="45.76851" lon="5.47138">
        <ele>204.916</ele>
        <time>2017-07-17T09:45:46Z</time>
      </trkpt>
      <trkpt lat="45.76886" lon="5.47099">
        <ele>204.899</ele>
        <time>2017-07-17T09:45:58Z</time>
      </trkpt>
      <trkpt lat="45.76924" lon="5.47059">
        <ele>204.869</ele>
        <time>2017-07-17T09:46:10Z</time>
      </trkpt>
      <trkpt lat="45.76962" lon="5.47013">
        <ele>205.07</ele>
        <time>2017-07-17T09:46:22Z</time>
      </trkpt>
      <trkpt lat="45.77005" lon="5.46972">
        <ele>205.283</ele>
        <time>2017-07-17T09:46:34Z</time>
      </trkpt>
      <trkpt lat="45.77051" lon="5.46937">
        <ele>205.145</ele>
        <time>2017-07-17T09:46:46Z</time>
      </trkpt>
      <trkpt lat="45.77084" lon="5.46915">
        <ele>205.081</ele>
        <time>2017-07-17T09:46:55Z</time>
      </trkpt>
      <trkpt lat="45.77117" lon="5.46892">
        <ele>204.834</ele>
        <time>2017-07-17T09:47:05Z</time>
      </trkpt>
      <trkpt lat="45.77158" lon="5.46857">
        <ele>204.84</ele>
        <time>2017-07-17T09:47:17Z</time>
      </trkpt>
      <trkpt lat="45.77191" lon="5.46826">
        <ele>205.075</ele>
        <time>2017-07-17T09:47:27Z</time>
      </trkpt>
      <trkpt lat="45.77229" lon="5.46792">
        <ele>204.731</ele>
        <time>2017-07-17T09:47:39Z</time>
      </trkpt>
      <trkpt lat="45.77266" lon="5.46762">
        <ele>204.79</ele>
        <time>2017-07-17T09:47:50Z</time>
      </trkpt>
      <trkpt lat="45.7727" lon="5.46757">
        <ele>204.992</ele>
        <time>2017-07-17T09:47:53Z</time>
      </trkpt>
      <trkpt lat="45.77273" lon="5.46767">
        <ele>204.279</ele>
        <time>2017-07-17T09:47:58Z</time>
      </trkpt>
      <trkpt lat="45.77288" lon="5.46779">
        <ele>203.975</ele>
        <time>2017-07-17T09:48:05Z</time>
      </trkpt>
      <trkpt lat="45.77303" lon="5.46766">
        <ele>203.451</ele>
        <time>2017-07-17T09:48:12Z</time>
      </trkpt>
      <trkpt lat="45.77324" lon="5.46747">
        <ele>203.114</ele>
        <time>2017-07-17T09:48:20Z</time>
      </trkpt>
      <trkpt lat="45.77357" lon="5.46718">
        <ele>203.978</ele>
        <time>2017-07-17T09:48:30Z</time>
      </trkpt>
      <trkpt lat="45.77386" lon="5.46695">
        <ele>203.641</ele>
        <time>2017-07-17T09:48:39Z</time>
      </trkpt>
      <trkpt lat="45.77438" lon="5.46657">
        <ele>203.682</ele>
        <time>2017-07-17T09:48:53Z</time>
      </trkpt>
      <trkpt lat="45.77471" lon="5.46635">
        <ele>203.736</ele>
        <time>2017-07-17T09:49:02Z</time>
      </trkpt>
      <trkpt lat="45.77498" lon="5.46615">
        <ele>203.844</ele>
        <time>2017-07-17T09:49:10Z</time>
      </trkpt>
      <trkpt lat="45.7753" lon="5.46593">
        <ele>203.491</ele>
        <time>2017-07-17T09:49:20Z</time>
      </trkpt>
      <trkpt lat="45.77536" lon="5.46588">
        <ele>203.189</ele>
        <time>2017-07-17T09:49:22Z</time>
      </trkpt>
      <trkpt lat="45.77558" lon="5.46571">
        <ele>203.234</ele>
        <time>2017-07-17T09:49:28Z</time>
      </trkpt>
      <trkpt lat="45.77573" lon="5.4656">
        <ele>203.21</ele>
        <time>2017-07-17T09:49:32Z</time>
      </trkpt>
      <trkpt lat="45.77617" lon="5.46527">
        <ele>203.564</ele>
        <time>2017-07-17T09:49:44Z</time>
      </trkpt>
      <trkpt lat="45.77646" lon="5.4651">
        <ele>203.596</ele>
        <time>2017-07-17T09:49:52Z</time>
      </trkpt>
      <trkpt lat="45.77668" lon="5.4648">
        <ele>203.841</ele>
        <time>2017-07-17T09:50:00Z</time>
      </trkpt>
      <trkpt lat="45.77703" lon="5.46429">
        <ele>204.12</ele>
        <time>2017-07-17T09:50:12Z</time>
      </trkpt>
      <trkpt lat="45.77741" lon="5.46386">
        <ele>203.891</ele>
        <time>2017-07-17T09:50:23Z</time>
      </trkpt>
      <trkpt lat="45.77781" lon="5.46347">
        <ele>203.27</ele>
        <time>2017-07-17T09:50:34Z</time>
      </trkpt>
      <trkpt lat="45.77825" lon="5.46302">
        <ele>203.507</ele>
        <time>2017-07-17T09:50:46Z</time>
      </trkpt>
      <trkpt lat="45.77854" lon="5.46255">
        <ele>203.489</ele>
        <time>2017-07-17T09:50:56Z</time>
      </trkpt>
      <trkpt lat="45.77889" lon="5.46214">
        <ele>203.379</ele>
        <time>2017-07-17T09:51:06Z</time>
      </trkpt>
      <trkpt lat="45.7793" lon="5.46172">
        <ele>203.284</ele>
        <time>2017-07-17T09:51:17Z</time>
      </trkpt>
      <trkpt lat="45.77957" lon="5.46144">
        <ele>204.243</ele>
        <time>2017-07-17T09:51:27Z</time>
      </trkpt>
      <trkpt lat="45.77981" lon="5.46118">
        <ele>204.533</ele>
        <time>2017-07-17T09:51:36Z</time>
      </trkpt>
      <trkpt lat="45.78009" lon="5.46085">
        <ele>204.141</ele>
        <time>2017-07-17T09:51:45Z</time>
      </trkpt>
      <trkpt lat="45.78025" lon="5.46068">
        <ele>203.975</ele>
        <time>2017-07-17T09:51:50Z</time>
      </trkpt>
      <trkpt lat="45.78062" lon="5.46028">
        <ele>203.558</ele>
        <time>2017-07-17T09:52:01Z</time>
      </trkpt>
      <trkpt lat="45.78083" lon="5.46007">
        <ele>203.815</ele>
        <time>2017-07-17T09:52:09Z</time>
      </trkpt>
      <trkpt lat="45.78095" lon="5.45986">
        <ele>204.639</ele>
        <time>2017-07-17T09:52:15Z</time>
      </trkpt>
      <trkpt lat="45.78114" lon="5.45953">
        <ele>204.406</ele>
        <time>2017-07-17T09:52:23Z</time>
      </trkpt>
      <trkpt lat="45.78147" lon="5.45897">
        <ele>204.983</ele>
        <time>2017-07-17T09:52:36Z</time>
      </trkpt>
      <trkpt lat="45.78161" lon="5.45872">
        <ele>204.992</ele>
        <time>2017-07-17T09:52:43Z</time>
      </trkpt>
      <trkpt lat="45.78166" lon="5.45863">
        <ele>204.45</ele>
        <time>2017-07-17T09:52:45Z</time>
      </trkpt>
      <trkpt lat="45.78198" lon="5.45812">
        <ele>204.784</ele>
        <time>2017-07-17T09:52:57Z</time>
      </trkpt>
      <trkpt lat="45.78222" lon="5.45767">
        <ele>204.505</ele>
        <time>2017-07-17T09:53:07Z</time>
      </trkpt>
      <trkpt lat="45.78227" lon="5.4576">
        <ele>204.685</ele>
        <time>2017-07-17T09:53:09Z</time>
      </trkpt>
      <trkpt lat="45.7824" lon="5.4571">
        <ele>205.17</ele>
        <time>2017-07-17T09:53:19Z</time>
      </trkpt>
      <trkpt lat="45.78247" lon="5.45689">
        <ele>204.92</ele>
        <time>2017-07-17T09:53:28Z</time>
      </trkpt>
      <trkpt lat="45.78251" lon="5.45679">
        <ele>204.889</ele>
        <time>2017-07-17T09:53:32Z</time>
      </trkpt>
      <trkpt lat="45.78264" lon="5.45646">
        <ele>204.423</ele>
        <time>2017-07-17T09:53:40Z</time>
      </trkpt>
      <trkpt lat="45.78277" lon="5.45612">
        <ele>205.251</ele>
        <time>2017-07-17T09:53:49Z</time>
      </trkpt>
      <trkpt lat="45.78286" lon="5.4558">
        <ele>204.896</ele>
        <time>2017-07-17T09:53:56Z</time>
      </trkpt>
      <trkpt lat="45.78301" lon="5.4552">
        <ele>205.086</ele>
        <time>2017-07-17T09:54:08Z</time>
      </trkpt>
      <trkpt lat="45.78309" lon="5.45484">
        <ele>204.717</ele>
        <time>2017-07-17T09:54:15Z</time>
      </trkpt>
      <trkpt lat="45.78315" lon="5.45458">
        <ele>204.845</ele>
        <time>2017-07-17T09:54:20Z</time>
      </trkpt>
      <trkpt lat="45.78325" lon="5.45414">
        <ele>205.107</ele>
        <time>2017-07-17T09:54:28Z</time>
      </trkpt>
      <trkpt lat="45.7834" lon="5.45374">
        <ele>204.812</ele>
        <time>2017-07-17T09:54:36Z</time>
      </trkpt>
      <trkpt lat="45.78363" lon="5.45313">
        <ele>204.88</ele>
        <time>2017-07-17T09:54:48Z</time>
      </trkpt>
      <trkpt lat="45.78384" lon="5.45265">
        <ele>205.285</ele>
        <time>2017-07-17T09:54:58Z</time>
      </trkpt>
      <trkpt lat="45.784" lon="5.45223">
        <ele>204.671</ele>
        <time>2017-07-17T09:55:08Z</time>
      </trkpt>
      <trkpt lat="45.78413" lon="5.45188">
        <ele>205.444</ele>
        <time>2017-07-17T09:55:15Z</time>
      </trkpt>
      <trkpt lat="45.78415" lon="5.45184">
        <ele>205.743</ele>
        <time>2017-07-17T09:55:16Z</time>
      </trkpt>
      <trkpt lat="45.78444" lon="5.45174">
        <ele>204.593</ele>
        <time>2017-07-17T09:55:23Z</time>
      </trkpt>
      <trkpt lat="45.7846" lon="5.45145">
        <ele>204.553</ele>
        <time>2017-07-17T09:55:29Z</time>
      </trkpt>
      <trkpt lat="45.78464" lon="5.45136">
        <ele>204.599</ele>
        <time>2017-07-17T09:55:31Z</time>
      </trkpt>
      <trkpt lat="45.78478" lon="5.45132">
        <ele>205.437</ele>
        <time>2017-07-17T09:55:35Z</time>
      </trkpt>
      <trkpt lat="45.78481" lon="5.45136">
        <ele>205.436</ele>
        <time>2017-07-17T09:55:36Z</time>
      </trkpt>
      <trkpt lat="45.78514" lon="5.45177">
        <ele>205.206</ele>
        <time>2017-07-17T09:55:47Z</time>
      </trkpt>
      <trkpt lat="45.78534" lon="5.452">
        <ele>206.346</ele>
        <time>2017-07-17T09:55:54Z</time>
      </trkpt>
      <trkpt lat="45.78532" lon="5.45221">
        <ele>206.721</ele>
        <time>2017-07-17T09:56:00Z</time>
      </trkpt>
      <trkpt lat="45.78524" lon="5.45246">
        <ele>205.195</ele>
        <time>2017-07-17T09:56:06Z</time>
      </trkpt>
      <trkpt lat="45.7852" lon="5.45258">
        <ele>207.608</ele>
        <time>2017-07-17T09:56:13Z</time>
      </trkpt>
      <trkpt lat="45.78503" lon="5.45253">
        <ele>208.51</ele>
        <time>2017-07-17T09:56:34Z</time>
      </trkpt>
      <trkpt lat="45.78469" lon="5.45231">
        <ele>210.159</ele>
        <time>2017-07-17T09:56:48Z</time>
      </trkpt>
      <trkpt lat="45.78444" lon="5.45213">
        <ele>211.28</ele>
        <time>2017-07-17T09:57:00Z</time>
      </trkpt>
      <trkpt lat="45.78422" lon="5.45198">
        <ele>212.558</ele>
        <time>2017-07-17T09:57:10Z</time>
      </trkpt>
      <trkpt lat="45.78399" lon="5.45183">
        <ele>213.474</ele>
        <time>2017-07-17T09:57:20Z</time>
      </trkpt>
      <trkpt lat="45.78369" lon="5.45163">
        <ele>214.318</ele>
        <time>2017-07-17T09:57:33Z</time>
      </trkpt>
      <trkpt lat="45.78345" lon="5.45146">
        <ele>213.963</ele>
        <time>2017-07-17T09:57:42Z</time>
      </trkpt>
      <trkpt lat="45.78313" lon="5.45124">
        <ele>212.765</ele>
        <time>2017-07-17T09:57:52Z</time>
      </trkpt>
      <trkpt lat="45.78282" lon="5.45102">
        <ele>211.626</ele>
        <time>2017-07-17T09:58:00Z</time>
      </trkpt>
      <trkpt lat="45.78274" lon="5.45096">
        <ele>211.841</ele>
        <time>2017-07-17T09:58:04Z</time>
      </trkpt>
      <trkpt lat="45.78279" lon="5.45082">
        <ele>211.305</ele>
        <time>2017-07-17T09:58:10Z</time>
      </trkpt>
      <trkpt lat="45.78287" lon="5.4507">
        <ele>209.542</ele>
        <time>2017-07-17T09:58:26Z</time>
      </trkpt>
      <trkpt lat="45.78289" lon="5.45068">
        <ele>209.503</ele>
        <time>2017-07-17T09:58:27Z</time>
      </trkpt>
      <trkpt lat="45.78271" lon="5.45094">
        <ele>208.261</ele>
        <time>2017-07-17T09:58:29Z</time>
      </trkpt>
      <trkpt lat="45.78303" lon="5.45047">
        <ele>206.563</ele>
        <time>2017-07-17T09:58:32Z</time>
      </trkpt>
      <trkpt lat="45.78308" lon="5.45036">
        <ele>206.71</ele>
        <time>2017-07-17T09:58:34Z</time>
      </trkpt>
      <trkpt lat="45.78306" lon="5.45013">
        <ele>207.978</ele>
        <time>2017-07-17T09:58:39Z</time>
      </trkpt>
      <trkpt lat="45.78307" lon="5.45009">
        <ele>208.292</ele>
        <time>2017-07-17T09:58:40Z</time>
      </trkpt>
      <trkpt lat="45.78323" lon="5.44968">
        <ele>207.357</ele>
        <time>2017-07-17T09:58:50Z</time>
      </trkpt>
      <trkpt lat="45.78337" lon="5.44936">
        <ele>208.081</ele>
        <time>2017-07-17T09:58:58Z</time>
      </trkpt>
      <trkpt lat="45.78355" lon="5.44888">
        <ele>209.529</ele>
        <time>2017-07-17T09:59:11Z</time>
      </trkpt>
      <trkpt lat="45.78374" lon="5.44853">
        <ele>210.36</ele>
        <time>2017-07-17T09:59:22Z</time>
      </trkpt>
      <trkpt lat="45.78386" lon="5.44829">
        <ele>211.089</ele>
        <time>2017-07-17T09:59:31Z</time>
      </trkpt>
      <trkpt lat="45.78395" lon="5.44812">
        <ele>212.709</ele>
        <time>2017-07-17T09:59:39Z</time>
      </trkpt>
      <trkpt lat="45.78407" lon="5.44792">
        <ele>213.919</ele>
        <time>2017-07-17T09:59:49Z</time>
      </trkpt>
      <trkpt lat="45.78409" lon="5.44777">
        <ele>214.95</ele>
        <time>2017-07-17T09:59:56Z</time>
      </trkpt>
      <trkpt lat="45.78411" lon="5.44771">
        <ele>217.15</ele>
        <time>2017-07-17T10:00:04Z</time>
      </trkpt>
      <trkpt lat="45.7841" lon="5.44767">
        <ele>217.372</ele>
        <time>2017-07-17T10:00:15Z</time>
      </trkpt>
      <trkpt lat="45.78425" lon="5.44755">
        <ele>218.236</ele>
        <time>2017-07-17T10:01:15Z</time>
      </trkpt>
      <trkpt lat="45.78442" lon="5.44743">
        <ele>217.954</ele>
        <time>2017-07-17T10:01:24Z</time>
      </trkpt>
      <trkpt lat="45.78462" lon="5.44729">
        <ele>217.729</ele>
        <time>2017-07-17T10:01:33Z</time>
      </trkpt>
      <trkpt lat="45.78483" lon="5.44713">
        <ele>217.28</ele>
        <time>2017-07-17T10:01:42Z</time>
      </trkpt>
      <trkpt lat="45.78514" lon="5.44691">
        <ele>215.401</ele>
        <time>2017-07-17T10:01:50Z</time>
      </trkpt>
      <trkpt lat="45.78526" lon="5.44671">
        <ele>213.891</ele>
        <time>2017-07-17T10:01:54Z</time>
      </trkpt>
      <trkpt lat="45.78543" lon="5.44647">
        <ele>212.383</ele>
        <time>2017-07-17T10:01:59Z</time>
      </trkpt>
      <trkpt lat="45.78569" lon="5.4461">
        <ele>209.266</ele>
        <time>2017-07-17T10:02:07Z</time>
      </trkpt>
      <trkpt lat="45.78572" lon="5.44604">
        <ele>209.266</ele>
        <time>2017-07-17T10:02:08Z</time>
      </trkpt>
      <trkpt lat="45.7858" lon="5.44592">
        <ele>208.924</ele>
        <time>2017-07-17T10:02:10Z</time>
      </trkpt>
      <trkpt lat="45.78595" lon="5.44577">
        <ele>207.252</ele>
        <time>2017-07-17T10:02:13Z</time>
      </trkpt>
      <trkpt lat="45.78615" lon="5.4457">
        <ele>205.008</ele>
        <time>2017-07-17T10:02:17Z</time>
      </trkpt>
      <trkpt lat="45.78621" lon="5.44566">
        <ele>204.032</ele>
        <time>2017-07-17T10:02:18Z</time>
      </trkpt>
      <trkpt lat="45.78638" lon="5.44546">
        <ele>203.733</ele>
        <time>2017-07-17T10:02:22Z</time>
      </trkpt>
      <trkpt lat="45.78659" lon="5.44511">
        <ele>205.429</ele>
        <time>2017-07-17T10:02:30Z</time>
      </trkpt>
      <trkpt lat="45.78674" lon="5.44487">
        <ele>207.011</ele>
        <time>2017-07-17T10:02:40Z</time>
      </trkpt>
      <trkpt lat="45.78682" lon="5.44471">
        <ele>208.273</ele>
        <time>2017-07-17T10:02:47Z</time>
      </trkpt>
      <trkpt lat="45.78685" lon="5.44461">
        <ele>209.298</ele>
        <time>2017-07-17T10:02:51Z</time>
      </trkpt>
      <trkpt lat="45.78691" lon="5.44436">
        <ele>210.568</ele>
        <time>2017-07-17T10:03:01Z</time>
      </trkpt>
      <trkpt lat="45.7869" lon="5.44404">
        <ele>213.053</ele>
        <time>2017-07-17T10:03:13Z</time>
      </trkpt>
      <trkpt lat="45.78689" lon="5.44377">
        <ele>215.405</ele>
        <time>2017-07-17T10:03:23Z</time>
      </trkpt>
      <trkpt lat="45.78688" lon="5.44369">
        <ele>216.849</ele>
        <time>2017-07-17T10:03:28Z</time>
      </trkpt>
      <trkpt lat="45.78703" lon="5.4436">
        <ele>216.967</ele>
        <time>2017-07-17T10:03:38Z</time>
      </trkpt>
      <trkpt lat="45.78708" lon="5.44357">
        <ele>217.123</ele>
        <time>2017-07-17T10:03:41Z</time>
      </trkpt>
      <trkpt lat="45.78712" lon="5.44354">
        <ele>217.307</ele>
        <time>2017-07-17T10:03:44Z</time>
      </trkpt>
      <trkpt lat="45.78717" lon="5.44351">
        <ele>217.479</ele>
        <time>2017-07-17T10:03:54Z</time>
      </trkpt>
      <trkpt lat="45.78721" lon="5.44348">
        <ele>217.607</ele>
        <time>2017-07-17T10:04:20Z</time>
      </trkpt>
    </trkseg>
  </trk>
</gpx>